Observation data for Smyer on 08/07/2020      Previous  Date  Next       Current Mesonet Observations  Soil Data  Daily Summary Page  Observations in Plain Language
KSM2 070500Z 18007KT 25/13 A30 RMK A01 T02490134  RH  049%=      5-min Rain = 0
KSM2 070501Z 18007KT 25/13 A2999 RMK A01 T02490134  RH  049%=      5-min Rain = 0
KSM2 070502Z 18007KT 25/13 A2999 RMK A01 T02490134  RH  049%=      5-min Rain = 0
KSM2 070503Z 18008KT 25/13 A2999 RMK A01 T02490134  RH  049%=      5-min Rain = 0
KSM2 070504Z 18009KT 25/13 A2999 RMK A01 T02490134  RH  049%=      5-min Rain = 0
KSM2 070505Z 18008KT 25/13 A2999 RMK A01 T02500134  RH  049%=      5-min Rain = 0
KSM2 070506Z 18008KT 25/14 A2999 RMK A01 T02510135  RH  049%=      5-min Rain = 0
KSM2 070507Z 18008KT 25/14 A30 RMK A01 T02510135  RH  049%=      5-min Rain = 0
KSM2 070508Z 19007KT 25/14 A30 RMK A01 T02500135  RH  049%=      5-min Rain = 0
KSM2 070509Z 19007KT 25/14 A30 RMK A01 T02500135  RH  049%=      5-min Rain = 0
KSM2 070510Z 19007KT 25/14 A30 RMK A01 T02490135  RH  049%=      5-min Rain = 0
KSM2 070511Z 19007KT 25/13 A30 RMK A01 T02490134  RH  049%=      5-min Rain = 0
KSM2 070512Z 19007KT 25/13 A30 RMK A01 T02490134  RH  049%=      5-min Rain = 0
KSM2 070513Z 19008KT 25/13 A30 RMK A01 T02480134  RH  049%=      5-min Rain = 0
KSM2 070514Z 19007KT 25/13 A30 RMK A01 T02480134  RH  049%=      5-min Rain = 0
KSM2 070515Z 18007KT 25/13 A30 RMK A01 T02490134  RH  049%=      5-min Rain = 0
KSM2 070516Z 18007KT 25/13 A30 RMK A01 T02490134  RH  049%=      5-min Rain = 0
KSM2 070517Z 18007KT 25/13 A30 RMK A01 T02480134  RH  049%=      5-min Rain = 0
KSM2 070518Z 18007KT 25/13 A30 RMK A01 T02490134  RH  049%=      5-min Rain = 0
KSM2 070519Z 18006KT 25/13 A30 RMK A01 T02490134  RH  049%=      5-min Rain = 0
KSM2 070520Z 18008KT 25/13 A30 RMK A01 T02500134  RH  048%=      5-min Rain = 0
KSM2 070521Z 18009KT 25/13 A30 RMK A01 T02500134  RH  048%=      5-min Rain = 0
KSM2 070522Z 18008KT 25/13 A30 RMK A01 T02510133  RH  048%=      5-min Rain = 0
KSM2 070523Z 18008KT 25/13 A30 RMK A01 T02520134  RH  048%=      5-min Rain = 0
KSM2 070524Z 18008KT 25/13 A30 RMK A01 T02520133  RH  048%=      5-min Rain = 0
KSM2 070525Z 18008KT 25/13 A30 RMK A01 T02520133  RH  048%=      5-min Rain = 0
KSM2 070526Z 18008KT 25/13 A30 RMK A01 T02530133  RH  048%=      5-min Rain = 0
KSM2 070527Z 18008KT 25/13 A30 RMK A01 T02530134  RH  047%=      5-min Rain = 0
KSM2 070528Z 18010KT 25/13 A30 RMK A01 T02540134  RH  047%=      5-min Rain = 0
KSM2 070529Z 18010KT 25/13 A30 RMK A01 T02540134  RH  047%=      5-min Rain = 0
KSM2 070530Z 18009KT 25/14 A30 RMK A01 T02540135  RH  047%=      5-min Rain = 0
KSM2 070531Z 18008KT 25/14 A30 RMK A01 T02540135  RH  048%=      5-min Rain = 0
KSM2 070532Z 18008KT 25/14 A30 RMK A01 T02540135  RH  048%=      5-min Rain = 0
KSM2 070533Z 18008KT 25/14 A30 RMK A01 T02530135  RH  048%=      5-min Rain = 0
KSM2 070534Z 18009KT 25/14 A2999 RMK A01 T02520135  RH  048%=      5-min Rain = 0
KSM2 070535Z 18010KT 25/14 A30 RMK A01 T02520135  RH  048%=      5-min Rain = 0
KSM2 070536Z 18008KT 25/14 A30 RMK A01 T02520135  RH  048%=      5-min Rain = 0
KSM2 070537Z 18008KT 25/14 A30 RMK A01 T02520136  RH  048%=      5-min Rain = 0
KSM2 070538Z 18008KT 25/14 A30 RMK A01 T02520136  RH  049%=      5-min Rain = 0
KSM2 070539Z 18008KT 25/14 A30 RMK A01 T02510136  RH  049%=      5-min Rain = 0
KSM2 070540Z 18008KT 25/14 A30 RMK A01 T02510136  RH  049%=      5-min Rain = 0
KSM2 070541Z 18008KT 25/14 A2999 RMK A01 T02510136  RH  049%=      5-min Rain = 0
KSM2 070542Z 19007KT 25/14 A2999 RMK A01 T02510136  RH  049%=      5-min Rain = 0
KSM2 070543Z 18008KT 25/14 A2999 RMK A01 T02500136  RH  049%=      5-min Rain = 0
KSM2 070544Z 19008KT 25/14 A2999 RMK A01 T02500136  RH  049%=      5-min Rain = 0
KSM2 070545Z 19008KT 25/14 A2999 RMK A01 T02500137  RH  049%=      5-min Rain = 0
KSM2 070546Z 19009KT 25/14 A2999 RMK A01 T02500137  RH  049%=      5-min Rain = 0
KSM2 070547Z 19009KT 25/14 A2999 RMK A01 T02500137  RH  049%=      5-min Rain = 0
KSM2 070548Z 18008KT 25/14 A2999 RMK A01 T02500137  RH  049%=      5-min Rain = 0
KSM2 070549Z 19009KT 25/14 A2999 RMK A01 T02500137  RH  049%=      5-min Rain = 0
KSM2 070550Z 19009KT 25/14 A2999 RMK A01 T02510137  RH  049%=      5-min Rain = 0
KSM2 070551Z 18009KT 25/14 A2999 RMK A01 T02510137  RH  049%=      5-min Rain = 0
KSM2 070552Z 19010KT 25/14 A2999 RMK A01 T02520138  RH  049%=      5-min Rain = 0
KSM2 070553Z 19009KT 25/14 A2999 RMK A01 T02530138  RH  049%=      5-min Rain = 0
KSM2 070554Z 19009KT 25/14 A2999 RMK A01 T02530139  RH  049%=      5-min Rain = 0
KSM2 070555Z 19010KT 25/14 A2999 RMK A01 T02520138  RH  049%=      5-min Rain = 0
KSM2 070556Z 19011G16KT 25/14 A2999 RMK A01 T02520139  RH  049%=      5-min Rain = 0
KSM2 070557Z 19011KT 25/14 A2999 RMK A01 T02530139  RH  049%=      5-min Rain = 0
KSM2 070558Z 19011KT 25/14 A2999 RMK A01 T02530139  RH  049%=      5-min Rain = 0
KSM2 070559Z 19010KT 25/14 A2999 RMK A01 T02530140  RH  050%=      5-min Rain = 0
KSM2 070600Z 19010KT 25/14 A2999 RMK A01 T02520140  RH  050%=      5-min Rain = 0
KSM2 070601Z 19010KT 25/14 A2999 RMK A01 T02520140  RH  050%=      5-min Rain = 0
KSM2 070602Z 19009KT 25/14 A2999 RMK A01 T02520140  RH  050%=      5-min Rain = 0
KSM2 070603Z 18009KT 25/14 A2999 RMK A01 T02520141  RH  050%=      5-min Rain = 0
KSM2 070604Z 19010KT 25/14 A2999 RMK A01 T02520141  RH  050%=      5-min Rain = 0
KSM2 070605Z 19010G15KT 25/14 A2999 RMK A01 T02520141  RH  050%=      5-min Rain = 0
KSM2 070606Z 18011KT 25/14 A2999 RMK A01 T02520141  RH  050%=      5-min Rain = 0
KSM2 070607Z 19012KT 25/14 A2999 RMK A01 T02520142  RH  050%=      5-min Rain = 0
KSM2 070608Z 19010KT 25/14 A2999 RMK A01 T02520142  RH  050%=      5-min Rain = 0
KSM2 070609Z 19011KT 25/14 A2999 RMK A01 T02520143  RH  051%=      5-min Rain = 0
KSM2 070610Z 19011KT 25/14 A2999 RMK A01 T02520143  RH  051%=      5-min Rain = 0
KSM2 070611Z 19010KT 25/14 A2999 RMK A01 T02520143  RH  051%=      5-min Rain = 0
KSM2 070612Z 19010KT 25/14 A2999 RMK A01 T02520143  RH  051%=      5-min Rain = 0
KSM2 070613Z 19009KT 25/14 A2999 RMK A01 T02510143  RH  051%=      5-min Rain = 0
KSM2 070614Z 18010KT 25/14 A2999 RMK A01 T02510143  RH  051%=      5-min Rain = 0
KSM2 070615Z 19009KT 25/14 A2999 RMK A01 T02510143  RH  051%=      5-min Rain = 0
KSM2 070616Z 19009KT 25/14 A2999 RMK A01 T02510143  RH  051%=      5-min Rain = 0
KSM2 070617Z 19009KT 25/14 A2999 RMK A01 T02510143  RH  051%=      5-min Rain = 0
KSM2 070618Z 19009KT 25/14 A30 RMK A01 T02510143  RH  051%=      5-min Rain = 0
KSM2 070619Z 19009KT 25/14 A30 RMK A01 T02500143  RH  051%=      5-min Rain = 0
KSM2 070620Z 19009KT 25/14 A30 RMK A01 T02510143  RH  051%=      5-min Rain = 0
KSM2 070621Z 19009KT 25/14 A30 RMK A01 T02510144  RH  051%=      5-min Rain = 0
KSM2 070622Z 19010KT 25/14 A30 RMK A01 T02510144  RH  051%=      5-min Rain = 0
KSM2 070623Z 18010KT 25/14 A30 RMK A01 T02510144  RH  052%=      5-min Rain = 0
KSM2 070624Z 19010KT 25/14 A30 RMK A01 T02510144  RH  052%=      5-min Rain = 0
KSM2 070625Z 19011KT 25/14 A30 RMK A01 T02510144  RH  052%=      5-min Rain = 0
KSM2 070626Z 19011KT 25/14 A30 RMK A01 T02510144  RH  052%=      5-min Rain = 0
KSM2 070627Z 19011KT 25/14 A30 RMK A01 T02510144  RH  052%=      5-min Rain = 0
KSM2 070628Z 19011KT 25/14 A30 RMK A01 T02510144  RH  052%=      5-min Rain = 0
KSM2 070629Z 19011KT 25/15 A30 RMK A01 T02510145  RH  052%=      5-min Rain = 0
KSM2 070630Z 20009KT 25/14 A3001 RMK A01 T02510144  RH  052%=      5-min Rain = 0
KSM2 070631Z 20010KT 25/15 A3001 RMK A01 T02510145  RH  052%=      5-min Rain = 0
KSM2 070632Z 20010KT 25/15 A3001 RMK A01 T02510145  RH  052%=      5-min Rain = 0
KSM2 070633Z 20010KT 25/14 A3001 RMK A01 T02510144  RH  052%=      5-min Rain = 0
KSM2 070634Z 20011KT 25/15 A3001 RMK A01 T02510145  RH  052%=      5-min Rain = 0
KSM2 070635Z 20010KT 25/15 A3001 RMK A01 T02510145  RH  052%=      5-min Rain = 0
KSM2 070636Z 20010KT 25/15 A3001 RMK A01 T02510145  RH  052%=      5-min Rain = 0
KSM2 070637Z 20009KT 25/15 A3001 RMK A01 T02500145  RH  052%=      5-min Rain = 0
KSM2 070638Z 20010KT 25/15 A3001 RMK A01 T02500145  RH  052%=      5-min Rain = 0
KSM2 070639Z 19009KT 25/15 A3001 RMK A01 T02490145  RH  052%=      5-min Rain = 0
KSM2 070640Z 19010KT 25/15 A3001 RMK A01 T02490145  RH  052%=      5-min Rain = 0
KSM2 070641Z 19010KT 25/15 A3001 RMK A01 T02490146  RH  052%=      5-min Rain = 0
KSM2 070642Z 20009KT 25/15 A3001 RMK A01 T02490145  RH  052%=      5-min Rain = 0
KSM2 070643Z 20010KT 25/15 A3001 RMK A01 T02490145  RH  052%=      5-min Rain = 0
KSM2 070644Z 20009KT 25/15 A3001 RMK A01 T02500146  RH  052%=      5-min Rain = 0
KSM2 070645Z 20009KT 25/15 A3001 RMK A01 T02500146  RH  052%=      5-min Rain = 0
KSM2 070646Z 20009KT 25/15 A3001 RMK A01 T02500145  RH  052%=      5-min Rain = 0
KSM2 070647Z 21009KT 25/15 A3001 RMK A01 T02500145  RH  052%=      5-min Rain = 0
KSM2 070648Z 20008KT 25/15 A3001 RMK A01 T02490145  RH  052%=      5-min Rain = 0
KSM2 070649Z 21009KT 25/15 A3001 RMK A01 T02490145  RH  052%=      5-min Rain = 0
KSM2 070650Z 20008KT 25/15 A3001 RMK A01 T02490145  RH  052%=      5-min Rain = 0
KSM2 070651Z 20008KT 25/15 A3001 RMK A01 T02490145  RH  052%=      5-min Rain = 0
KSM2 070652Z 20009KT 25/15 A3001 RMK A01 T02490145  RH  052%=      5-min Rain = 0
KSM2 070653Z 20009KT 25/15 A3001 RMK A01 T02490145  RH  052%=      5-min Rain = 0
KSM2 070654Z 20009KT 25/14 A3001 RMK A01 T02490144  RH  052%=      5-min Rain = 0
KSM2 070655Z 20010KT 25/14 A3001 RMK A01 T02490144  RH  052%=      5-min Rain = 0
KSM2 070656Z 19009KT 25/14 A3001 RMK A01 T02490144  RH  052%=      5-min Rain = 0
KSM2 070657Z 20008KT 25/15 A3001 RMK A01 T02490145  RH  052%=      5-min Rain = 0
KSM2 070658Z 20009KT 25/15 A3001 RMK A01 T02490145  RH  052%=      5-min Rain = 0
KSM2 070659Z 20008KT 25/15 A3001 RMK A01 T02490145  RH  052%=      5-min Rain = 0
KSM2 070700Z 20007KT 25/15 A3001 RMK A01 T02490145  RH  052%=      5-min Rain = 0
KSM2 070701Z 20007KT 25/15 A3001 RMK A01 T02480145  RH  053%=      5-min Rain = 0
KSM2 070702Z 20007KT 25/15 A3001 RMK A01 T02470145  RH  053%=      5-min Rain = 0
KSM2 070703Z 20007KT 25/15 A3001 RMK A01 T02470145  RH  053%=      5-min Rain = 0
KSM2 070704Z 20008KT 25/15 A3002 RMK A01 T02470145  RH  053%=      5-min Rain = 0
KSM2 070705Z 20007KT 25/15 A3002 RMK A01 T02460145  RH  053%=      5-min Rain = 0
KSM2 070706Z 20008KT 25/15 A3002 RMK A01 T02460145  RH  053%=      5-min Rain = 0
KSM2 070707Z 20008KT 25/15 A3002 RMK A01 T02460145  RH  053%=      5-min Rain = 0
KSM2 070708Z 20007KT 25/15 A3002 RMK A01 T02460145  RH  054%=      5-min Rain = 0
KSM2 070709Z 20008KT 25/15 A3002 RMK A01 T02460146  RH  054%=      5-min Rain = 0
KSM2 070710Z 20007KT 25/15 A3002 RMK A01 T02450146  RH  054%=      5-min Rain = 0
KSM2 070711Z 20008KT 25/15 A3002 RMK A01 T02450146  RH  054%=      5-min Rain = 0
KSM2 070712Z 19008KT 25/15 A3002 RMK A01 T02450145  RH  054%=      5-min Rain = 0
KSM2 070713Z 20008KT 25/15 A3002 RMK A01 T02450146  RH  054%=      5-min Rain = 0
KSM2 070714Z 19008KT 25/15 A3002 RMK A01 T02450146  RH  054%=      5-min Rain = 0
KSM2 070715Z 20008KT 24/15 A3002 RMK A01 T02440145  RH  054%=      5-min Rain = 0
KSM2 070716Z 19007KT 24/15 A3002 RMK A01 T02440145  RH  054%=      5-min Rain = 0
KSM2 070717Z 19008KT 24/15 A3002 RMK A01 T02440145  RH  054%=      5-min Rain = 0
KSM2 070718Z 20008KT 24/15 A3002 RMK A01 T02430145  RH  054%=      5-min Rain = 0
KSM2 070719Z 19008KT 24/15 A3002 RMK A01 T02430145  RH  054%=      5-min Rain = 0
KSM2 070720Z 19008KT 24/15 A3002 RMK A01 T02430145  RH  054%=      5-min Rain = 0
KSM2 070721Z 19008KT 24/15 A3002 RMK A01 T02430145  RH  054%=      5-min Rain = 0
KSM2 070722Z 19008KT 24/15 A3002 RMK A01 T02430146  RH  055%=      5-min Rain = 0
KSM2 070723Z 19008KT 24/15 A3002 RMK A01 T02420146  RH  055%=      5-min Rain = 0
KSM2 070724Z 19008KT 24/15 A3002 RMK A01 T02420146  RH  055%=      5-min Rain = 0
KSM2 070725Z 19008KT 24/15 A3002 RMK A01 T02410146  RH  055%=      5-min Rain = 0
KSM2 070726Z 19007KT 24/15 A3002 RMK A01 T02410146  RH  055%=      5-min Rain = 0
KSM2 070727Z 19007KT 24/15 A3002 RMK A01 T02410146  RH  055%=      5-min Rain = 0
KSM2 070728Z 19007KT 24/15 A3002 RMK A01 T02410146  RH  055%=      5-min Rain = 0
KSM2 070729Z 19007KT 24/15 A3002 RMK A01 T02410146  RH  055%=      5-min Rain = 0
KSM2 070730Z 19007KT 24/15 A3002 RMK A01 T02400146  RH  056%=      5-min Rain = 0
KSM2 070731Z 19007KT 24/15 A3002 RMK A01 T02400146  RH  056%=      5-min Rain = 0
KSM2 070732Z 19007KT 24/15 A3003 RMK A01 T02390146  RH  056%=      5-min Rain = 0
KSM2 070733Z 19007KT 24/15 A3003 RMK A01 T02390146  RH  056%=      5-min Rain = 0
KSM2 070734Z 19007KT 24/15 A3003 RMK A01 T02390147  RH  056%=      5-min Rain = 0
KSM2 070735Z 19007KT 24/15 A3003 RMK A01 T02390147  RH  056%=      5-min Rain = 0
KSM2 070736Z 19006KT 24/15 A3003 RMK A01 T02390147  RH  056%=      5-min Rain = 0
KSM2 070737Z 19005KT 24/15 A3003 RMK A01 T02380147  RH  057%=      5-min Rain = 0
KSM2 070738Z 18006KT 24/15 A3003 RMK A01 T02380147  RH  057%=      5-min Rain = 0
KSM2 070739Z 18005KT 24/15 A3003 RMK A01 T02370147  RH  057%=      5-min Rain = 0
KSM2 070740Z 19006KT 24/15 A3003 RMK A01 T02370147  RH  057%=      5-min Rain = 0
KSM2 070741Z 18006KT 24/15 A3003 RMK A01 T02370147  RH  057%=      5-min Rain = 0
KSM2 070742Z 19006KT 24/15 A3003 RMK A01 T02370148  RH  057%=      5-min Rain = 0
KSM2 070743Z 18006KT 24/15 A3003 RMK A01 T02370148  RH  058%=      5-min Rain = 0
KSM2 070744Z 18006KT 24/15 A3003 RMK A01 T02360148  RH  058%=      5-min Rain = 0
KSM2 070745Z 18006KT 24/15 A3003 RMK A01 T02360149  RH  058%=      5-min Rain = 0
KSM2 070746Z 18006KT 24/15 A3003 RMK A01 T02360149  RH  058%=      5-min Rain = 0
KSM2 070747Z 18005KT 24/15 A3003 RMK A01 T02360149  RH  058%=      5-min Rain = 0
KSM2 070748Z 18005KT 24/15 A3003 RMK A01 T02350149  RH  058%=      5-min Rain = 0
KSM2 070749Z 18005KT 24/15 A3003 RMK A01 T02350149  RH  058%=      5-min Rain = 0
KSM2 070750Z 18006KT 24/15 A3003 RMK A01 T02350149  RH  059%=      5-min Rain = 0
KSM2 070751Z 19006KT 24/15 A3003 RMK A01 T02350149  RH  059%=      5-min Rain = 0
KSM2 070752Z 18006KT 24/15 A3003 RMK A01 T02350149  RH  059%=      5-min Rain = 0
KSM2 070753Z 19006KT 23/15 A3003 RMK A01 T02340149  RH  059%=      5-min Rain = 0
KSM2 070754Z 19007KT 23/15 A3003 RMK A01 T02340150  RH  059%=      5-min Rain = 0
KSM2 070755Z 18005KT 23/15 A3003 RMK A01 T02340150  RH  059%=      5-min Rain = 0
KSM2 070756Z 18006KT 23/15 A3003 RMK A01 T02340150  RH  059%=      5-min Rain = 0
KSM2 070757Z 19006KT 23/15 A3003 RMK A01 T02330150  RH  059%=      5-min Rain = 0
KSM2 070758Z 19006KT 23/15 A3003 RMK A01 T02330150  RH  060%=      5-min Rain = 0
KSM2 070759Z 19006KT 23/15 A3003 RMK A01 T02320150  RH  060%=      5-min Rain = 0
KSM2 070800Z 19007KT 23/15 A3003 RMK A01 T02310150  RH  060%=      5-min Rain = 0
KSM2 070801Z 19007KT 23/15 A3003 RMK A01 T02310150  RH  060%=      5-min Rain = 0
KSM2 070802Z 19007KT 23/15 A3003 RMK A01 T02300150  RH  061%=      5-min Rain = 0
KSM2 070803Z 19007KT 23/15 A3003 RMK A01 T02300150  RH  061%=      5-min Rain = 0
KSM2 070804Z 19007KT 23/15 A3003 RMK A01 T02290151  RH  061%=      5-min Rain = 0
KSM2 070805Z 19008KT 23/15 A3003 RMK A01 T02290150  RH  061%=      5-min Rain = 0
KSM2 070806Z 19006KT 23/15 A3003 RMK A01 T02290150  RH  061%=      5-min Rain = 0
KSM2 070807Z 18005KT 23/15 A3003 RMK A01 T02290151  RH  061%=      5-min Rain = 0
KSM2 070808Z 18006KT 23/15 A3003 RMK A01 T02280151  RH  062%=      5-min Rain = 0
KSM2 070809Z 18006KT 23/15 A3003 RMK A01 T02280151  RH  062%=      5-min Rain = 0
KSM2 070810Z 18006KT 23/15 A3003 RMK A01 T02280152  RH  062%=      5-min Rain = 0
KSM2 070811Z 18006KT 23/15 A3003 RMK A01 T02280152  RH  062%=      5-min Rain = 0
KSM2 070812Z 19006KT 23/15 A3003 RMK A01 T02280152  RH  062%=      5-min Rain = 0
KSM2 070813Z 19007KT 23/15 A3003 RMK A01 T02280152  RH  062%=      5-min Rain = 0
KSM2 070814Z 18005KT 23/15 A3003 RMK A01 T02280152  RH  062%=      5-min Rain = 0
KSM2 070815Z 18006KT 23/15 A3003 RMK A01 T02280152  RH  062%=      5-min Rain = 0
KSM2 070816Z 18006KT 23/15 A3003 RMK A01 T02270152  RH  063%=      5-min Rain = 0
KSM2 070817Z 18006KT 23/15 A3003 RMK A01 T02270152  RH  063%=      5-min Rain = 0
KSM2 070818Z 18007KT 23/15 A3003 RMK A01 T02270153  RH  063%=      5-min Rain = 0
KSM2 070819Z 18006KT 23/15 A3003 RMK A01 T02270153  RH  063%=      5-min Rain = 0
KSM2 070820Z 18006KT 23/15 A3003 RMK A01 T02270153  RH  063%=      5-min Rain = 0
KSM2 070821Z 17006KT 23/15 A3003 RMK A01 T02280153  RH  063%=      5-min Rain = 0
KSM2 070822Z 18008KT 23/15 A3003 RMK A01 T02280153  RH  063%=      5-min Rain = 0
KSM2 070823Z 17007KT 23/15 A3003 RMK A01 T02280153  RH  063%=      5-min Rain = 0
KSM2 070824Z 17006KT 23/15 A3003 RMK A01 T02280153  RH  063%=      5-min Rain = 0
KSM2 070825Z 17007KT 23/15 A3003 RMK A01 T02280153  RH  063%=      5-min Rain = 0
KSM2 070826Z 18007KT 23/15 A3003 RMK A01 T02280154  RH  063%=      5-min Rain = 0
KSM2 070827Z 18008KT 23/15 A3003 RMK A01 T02280154  RH  063%=      5-min Rain = 0
KSM2 070828Z 18007KT 23/15 A3003 RMK A01 T02270154  RH  063%=      5-min Rain = 0
KSM2 070829Z 18008KT 23/15 A3003 RMK A01 T02270154  RH  063%=      5-min Rain = 0
KSM2 070830Z 18008KT 23/15 A3003 RMK A01 T02270154  RH  063%=      5-min Rain = 0
KSM2 070831Z 18007KT 23/15 A3003 RMK A01 T02270154  RH  064%=      5-min Rain = 0
KSM2 070832Z 18007KT 23/15 A3002 RMK A01 T02270154  RH  064%=      5-min Rain = 0
KSM2 070833Z 18008KT 23/16 A3002 RMK A01 T02260155  RH  064%=      5-min Rain = 0
KSM2 070834Z 18008KT 23/15 A3002 RMK A01 T02250154  RH  064%=      5-min Rain = 0
KSM2 070835Z 19007KT 23/16 A3002 RMK A01 T02250155  RH  064%=      5-min Rain = 0
KSM2 070836Z 19007KT 22/16 A3002 RMK A01 T02240155  RH  065%=      5-min Rain = 0
KSM2 070837Z 19008KT 22/16 A3002 RMK A01 T02240155  RH  065%=      5-min Rain = 0
KSM2 070838Z 19008KT 22/15 A3002 RMK A01 T02230154  RH  065%=      5-min Rain = 0
KSM2 070839Z 19008KT 22/15 A3002 RMK A01 T02230154  RH  065%=      5-min Rain = 0
KSM2 070840Z 19008KT 22/15 A3002 RMK A01 T02220154  RH  065%=      5-min Rain = 0
KSM2 070841Z 19008KT 22/15 A3002 RMK A01 T02220154  RH  065%=      5-min Rain = 0
KSM2 070842Z 19008KT 22/15 A3002 RMK A01 T02220154  RH  065%=      5-min Rain = 0
KSM2 070843Z 19008KT 22/15 A3002 RMK A01 T02220154  RH  065%=      5-min Rain = 0
KSM2 070844Z 19007KT 22/15 A3002 RMK A01 T02220154  RH  065%=      5-min Rain = 0
KSM2 070845Z 19007KT 22/15 A3002 RMK A01 T02220154  RH  065%=      5-min Rain = 0
KSM2 070846Z 19007KT 22/15 A3003 RMK A01 T02220154  RH  065%=      5-min Rain = 0
KSM2 070847Z 19007KT 22/15 A3003 RMK A01 T02220154  RH  065%=      5-min Rain = 0
KSM2 070848Z 19008KT 22/15 A3003 RMK A01 T02220154  RH  065%=      5-min Rain = 0
KSM2 070849Z 19008KT 22/15 A3003 RMK A01 T02220154  RH  065%=      5-min Rain = 0
KSM2 070850Z 19007KT 22/15 A3003 RMK A01 T02220154  RH  066%=      5-min Rain = 0
KSM2 070851Z 19008KT 22/15 A3003 RMK A01 T02210154  RH  066%=      5-min Rain = 0
KSM2 070852Z 19008KT 22/15 A3003 RMK A01 T02220154  RH  066%=      5-min Rain = 0
KSM2 070853Z 20008KT 22/15 A3003 RMK A01 T02210154  RH  066%=      5-min Rain = 0
KSM2 070854Z 20007KT 22/15 A3003 RMK A01 T02210154  RH  066%=      5-min Rain = 0
KSM2 070855Z 20008KT 22/15 A3003 RMK A01 T02220154  RH  066%=      5-min Rain = 0
KSM2 070856Z 20007KT 22/15 A3003 RMK A01 T02220154  RH  066%=      5-min Rain = 0
KSM2 070857Z 20008KT 22/15 A3003 RMK A01 T02220154  RH  065%=      5-min Rain = 0
KSM2 070858Z 20009KT 22/15 A3003 RMK A01 T02230154  RH  065%=      5-min Rain = 0
KSM2 070859Z 20008KT 22/16 A3003 RMK A01 T02230155  RH  065%=      5-min Rain = 0
KSM2 070900Z 20009KT 22/15 A3003 RMK A01 T02230154  RH  065%=      5-min Rain = 0
KSM2 070901Z 20008KT 22/15 A3003 RMK A01 T02240154  RH  065%=      5-min Rain = 0
KSM2 070902Z 20009KT 22/15 A3003 RMK A01 T02240154  RH  065%=      5-min Rain = 0
KSM2 070903Z 19010KT 22/15 A3003 RMK A01 T02240154  RH  064%=      5-min Rain = 0
KSM2 070904Z 19009KT 23/15 A3003 RMK A01 T02250154  RH  064%=      5-min Rain = 0
KSM2 070905Z 19008KT 23/15 A3003 RMK A01 T02250154  RH  064%=      5-min Rain = 0
KSM2 070906Z 20009KT 23/15 A3003 RMK A01 T02250154  RH  064%=      5-min Rain = 0
KSM2 070907Z 20008KT 23/15 A3003 RMK A01 T02250154  RH  064%=      5-min Rain = 0
KSM2 070908Z 20008KT 23/15 A3003 RMK A01 T02250154  RH  064%=      5-min Rain = 0
KSM2 070909Z 20010KT 23/15 A3003 RMK A01 T02250154  RH  064%=      5-min Rain = 0
KSM2 070910Z 20009KT 23/15 A3003 RMK A01 T02260154  RH  064%=      5-min Rain = 0
KSM2 070911Z 19009KT 23/15 A3003 RMK A01 T02260154  RH  064%=      5-min Rain = 0
KSM2 070912Z 19009KT 23/15 A3003 RMK A01 T02260154  RH  064%=      5-min Rain = 0
KSM2 070913Z 19010KT 23/15 A3003 RMK A01 T02260154  RH  064%=      5-min Rain = 0
KSM2 070914Z 19009KT 23/15 A3002 RMK A01 T02260154  RH  064%=      5-min Rain = 0
KSM2 070915Z 19009KT 23/15 A3002 RMK A01 T02270154  RH  063%=      5-min Rain = 0
KSM2 070916Z 19008KT 23/16 A3002 RMK A01 T02270155  RH  064%=      5-min Rain = 0
KSM2 070917Z 19009KT 23/16 A3002 RMK A01 T02270155  RH  064%=      5-min Rain = 0
KSM2 070918Z 19009KT 23/16 A3002 RMK A01 T02270155  RH  064%=      5-min Rain = 0
KSM2 070919Z 19009KT 23/16 A3003 RMK A01 T02260155  RH  064%=      5-min Rain = 0
KSM2 070920Z 20009KT 23/16 A3003 RMK A01 T02260155  RH  064%=      5-min Rain = 0
KSM2 070921Z 19009KT 23/16 A3003 RMK A01 T02260155  RH  064%=      5-min Rain = 0
KSM2 070922Z 20008KT 23/16 A3003 RMK A01 T02260155  RH  064%=      5-min Rain = 0
KSM2 070923Z 20008KT 23/16 A3003 RMK A01 T02260156  RH  065%=      5-min Rain = 0
KSM2 070924Z 20009KT 23/16 A3003 RMK A01 T02260156  RH  065%=      5-min Rain = 0
KSM2 070925Z 19009KT 23/16 A3003 RMK A01 T02260156  RH  065%=      5-min Rain = 0
KSM2 070926Z 19009KT 23/16 A3003 RMK A01 T02260156  RH  065%=      5-min Rain = 0
KSM2 070927Z 19009KT 23/16 A3003 RMK A01 T02250156  RH  065%=      5-min Rain = 0
KSM2 070928Z 20009KT 23/16 A3003 RMK A01 T02250156  RH  065%=      5-min Rain = 0
KSM2 070929Z 19009KT 23/16 A3003 RMK A01 T02250156  RH  065%=      5-min Rain = 0
KSM2 070930Z 19009KT 23/16 A3003 RMK A01 T02250157  RH  065%=      5-min Rain = 0
KSM2 070931Z 19009KT 22/16 A3002 RMK A01 T02240156  RH  065%=      5-min Rain = 0
KSM2 070932Z 19008KT 22/16 A3002 RMK A01 T02240156  RH  066%=      5-min Rain = 0
KSM2 070933Z 19008KT 22/16 A3002 RMK A01 T02240156  RH  066%=      5-min Rain = 0
KSM2 070934Z 19008KT 22/16 A3002 RMK A01 T02230156  RH  066%=      5-min Rain = 0
KSM2 070935Z 19008KT 22/16 A3002 RMK A01 T02230156  RH  066%=      5-min Rain = 0
KSM2 070936Z 19008KT 22/16 A3002 RMK A01 T02230156  RH  066%=      5-min Rain = 0
KSM2 070937Z 20008KT 22/16 A3002 RMK A01 T02230156  RH  066%=      5-min Rain = 0
KSM2 070938Z 20007KT 22/16 A3002 RMK A01 T02220157  RH  066%=      5-min Rain = 0
KSM2 070939Z 20008KT 22/16 A3002 RMK A01 T02220156  RH  066%=      5-min Rain = 0
KSM2 070940Z 20007KT 22/16 A3002 RMK A01 T02220156  RH  066%=      5-min Rain = 0
KSM2 070941Z 20007KT 22/16 A3002 RMK A01 T02220156  RH  066%=      5-min Rain = 0
KSM2 070942Z 20007KT 22/16 A3002 RMK A01 T02220156  RH  066%=      5-min Rain = 0
KSM2 070943Z 20007KT 22/16 A3002 RMK A01 T02220156  RH  066%=      5-min Rain = 0
KSM2 070944Z 20007KT 22/16 A3002 RMK A01 T02220156  RH  066%=      5-min Rain = 0
KSM2 070945Z 20007KT 22/16 A3002 RMK A01 T02220156  RH  066%=      5-min Rain = 0
KSM2 070946Z 20007KT 22/16 A3002 RMK A01 T02220156  RH  066%=      5-min Rain = 0
KSM2 070947Z 20006KT 22/16 A3003 RMK A01 T02220156  RH  066%=      5-min Rain = 0
KSM2 070948Z 20007KT 22/16 A3003 RMK A01 T02230156  RH  066%=      5-min Rain = 0
KSM2 070949Z 20007KT 22/16 A3003 RMK A01 T02230156  RH  066%=      5-min Rain = 0
KSM2 070950Z 21007KT 22/16 A3003 RMK A01 T02230156  RH  066%=      5-min Rain = 0
KSM2 070951Z 20007KT 22/16 A3003 RMK A01 T02230156  RH  066%=      5-min Rain = 0
KSM2 070952Z 21008KT 22/16 A3003 RMK A01 T02230156  RH  066%=      5-min Rain = 0
KSM2 070953Z 20007KT 22/16 A3003 RMK A01 T02230156  RH  066%=      5-min Rain = 0
KSM2 070954Z 20008KT 22/16 A3003 RMK A01 T02230156  RH  066%=      5-min Rain = 0
KSM2 070955Z 20008KT 22/16 A3003 RMK A01 T02220156  RH  066%=      5-min Rain = 0
KSM2 070956Z 20008KT 22/16 A3003 RMK A01 T02220156  RH  066%=      5-min Rain = 0
KSM2 070957Z 20008KT 22/16 A3003 RMK A01 T02220156  RH  066%=      5-min Rain = 0
KSM2 070958Z 21008KT 22/16 A3003 RMK A01 T02220156  RH  066%=      5-min Rain = 0
KSM2 070959Z 21008KT 22/16 A3003 RMK A01 T02210156  RH  066%=      5-min Rain = 0
KSM2 071000Z 21008KT 22/16 A3003 RMK A01 T02220156  RH  066%=      5-min Rain = 0
KSM2 071001Z 20008KT 22/16 A3003 RMK A01 T02210156  RH  066%=      5-min Rain = 0
KSM2 071002Z 20008KT 22/16 A3003 RMK A01 T02220156  RH  066%=      5-min Rain = 0
KSM2 071003Z 20007KT 22/16 A3003 RMK A01 T02210156  RH  067%=      5-min Rain = 0
KSM2 071004Z 20007KT 22/16 A3003 RMK A01 T02210157  RH  067%=      5-min Rain = 0
KSM2 071005Z 20007KT 22/16 A3003 RMK A01 T02210157  RH  067%=      5-min Rain = 0
KSM2 071006Z 20007KT 22/16 A3003 RMK A01 T02210156  RH  067%=      5-min Rain = 0
KSM2 071007Z 21007KT 22/16 A3003 RMK A01 T02210156  RH  067%=      5-min Rain = 0
KSM2 071008Z 20007KT 22/16 A3003 RMK A01 T02210156  RH  067%=      5-min Rain = 0
KSM2 071009Z 20007KT 22/16 A3003 RMK A01 T02210156  RH  067%=      5-min Rain = 0
KSM2 071010Z 20007KT 22/16 A3003 RMK A01 T02210156  RH  067%=      5-min Rain = 0
KSM2 071011Z 20008KT 22/16 A3003 RMK A01 T02210156  RH  067%=      5-min Rain = 0
KSM2 071012Z 20008KT 22/16 A3003 RMK A01 T02210157  RH  067%=      5-min Rain = 0
KSM2 071013Z 20008KT 22/16 A3003 RMK A01 T02210157  RH  067%=      5-min Rain = 0
KSM2 071014Z 20007KT 22/16 A3003 RMK A01 T02200157  RH  067%=      5-min Rain = 0
KSM2 071015Z 20006KT 22/16 A3003 RMK A01 T02200156  RH  067%=      5-min Rain = 0
KSM2 071016Z 20008KT 22/16 A3003 RMK A01 T02190156  RH  067%=      5-min Rain = 0
KSM2 071017Z 20007KT 22/16 A3002 RMK A01 T02190157  RH  068%=      5-min Rain = 0
KSM2 071018Z 20007KT 22/16 A3002 RMK A01 T02190157  RH  068%=      5-min Rain = 0
KSM2 071019Z 20006KT 22/16 A3002 RMK A01 T02190157  RH  068%=      5-min Rain = 0
KSM2 071020Z 20007KT 22/16 A3003 RMK A01 T02190157  RH  068%=      5-min Rain = 0
KSM2 071021Z 19007KT 22/16 A3002 RMK A01 T02190157  RH  068%=      5-min Rain = 0
KSM2 071022Z 20008KT 22/16 A3002 RMK A01 T02190157  RH  068%=      5-min Rain = 0
KSM2 071023Z 20007KT 22/16 A3002 RMK A01 T02190157  RH  068%=      5-min Rain = 0
KSM2 071024Z 20007KT 22/16 A3002 RMK A01 T02190157  RH  068%=      5-min Rain = 0
KSM2 071025Z 20007KT 22/16 A3002 RMK A01 T02180157  RH  068%=      5-min Rain = 0
KSM2 071026Z 20007KT 22/16 A3002 RMK A01 T02180157  RH  068%=      5-min Rain = 0
KSM2 071027Z 20007KT 22/16 A3002 RMK A01 T02180157  RH  068%=      5-min Rain = 0
KSM2 071028Z 20008KT 22/16 A3002 RMK A01 T02180157  RH  068%=      5-min Rain = 0
KSM2 071029Z 20006KT 22/16 A3002 RMK A01 T02180157  RH  068%=      5-min Rain = 0
KSM2 071030Z 20008KT 22/16 A3002 RMK A01 T02180157  RH  068%=      5-min Rain = 0
KSM2 071031Z 20007KT 22/16 A3002 RMK A01 T02180157  RH  068%=      5-min Rain = 0
KSM2 071032Z 20008KT 22/16 A3002 RMK A01 T02180157  RH  068%=      5-min Rain = 0
KSM2 071033Z 20008KT 22/16 A3002 RMK A01 T02180157  RH  068%=      5-min Rain = 0
KSM2 071034Z 20007KT 22/16 A3002 RMK A01 T02180157  RH  068%=      5-min Rain = 0
KSM2 071035Z 20007KT 22/16 A3002 RMK A01 T02180157  RH  068%=      5-min Rain = 0
KSM2 071036Z 20008KT 22/16 A3002 RMK A01 T02180157  RH  068%=      5-min Rain = 0
KSM2 071037Z 20008KT 22/16 A3002 RMK A01 T02190156  RH  068%=      5-min Rain = 0
KSM2 071038Z 20008KT 22/16 A3002 RMK A01 T02200157  RH  067%=      5-min Rain = 0
KSM2 071039Z 21008KT 22/16 A3002 RMK A01 T02200157  RH  067%=      5-min Rain = 0
KSM2 071040Z 21008KT 22/16 A3002 RMK A01 T02200157  RH  067%=      5-min Rain = 0
KSM2 071041Z 20008KT 22/16 A3002 RMK A01 T02210157  RH  067%=      5-min Rain = 0
KSM2 071042Z 21009KT 22/16 A3002 RMK A01 T02210157  RH  067%=      5-min Rain = 0
KSM2 071043Z 21009KT 22/16 A3002 RMK A01 T02210157  RH  067%=      5-min Rain = 0
KSM2 071044Z 21009KT 22/16 A3002 RMK A01 T02210157  RH  067%=      5-min Rain = 0
KSM2 071045Z 20009KT 22/16 A3002 RMK A01 T02220157  RH  067%=      5-min Rain = 0
KSM2 071046Z 20009KT 22/16 A3002 RMK A01 T02220157  RH  066%=      5-min Rain = 0
KSM2 071047Z 20009KT 22/16 A3002 RMK A01 T02230157  RH  066%=      5-min Rain = 0
KSM2 071048Z 21009KT 22/16 A3002 RMK A01 T02230157  RH  066%=      5-min Rain = 0
KSM2 071049Z 21009KT 22/16 A3002 RMK A01 T02230157  RH  066%=      5-min Rain = 0
KSM2 071050Z 20009KT 22/16 A3002 RMK A01 T02230157  RH  066%=      5-min Rain = 0
KSM2 071051Z 20008KT 22/16 A3002 RMK A01 T02230157  RH  066%=      5-min Rain = 0
KSM2 071052Z 20008KT 22/16 A3002 RMK A01 T02230157  RH  066%=      5-min Rain = 0
KSM2 071053Z 20008KT 22/16 A3002 RMK A01 T02230157  RH  066%=      5-min Rain = 0
KSM2 071054Z 20009KT 22/16 A3002 RMK A01 T02230157  RH  066%=      5-min Rain = 0
KSM2 071055Z 20009KT 22/16 A3002 RMK A01 T02230158  RH  067%=      5-min Rain = 0
KSM2 071056Z 21008KT 22/16 A3002 RMK A01 T02220158  RH  067%=      5-min Rain = 0
KSM2 071057Z 20009KT 22/16 A3002 RMK A01 T02220157  RH  067%=      5-min Rain = 0
KSM2 071058Z 20008KT 22/16 A3002 RMK A01 T02220158  RH  067%=      5-min Rain = 0
KSM2 071059Z 20008KT 22/16 A3002 RMK A01 T02230158  RH  067%=      5-min Rain = 0
KSM2 071100Z 20009KT 22/16 A3002 RMK A01 T02230158  RH  067%=      5-min Rain = 0
KSM2 071101Z 20009KT 22/16 A3002 RMK A01 T02230158  RH  067%=      5-min Rain = 0
KSM2 071102Z 20009KT 22/16 A3002 RMK A01 T02230158  RH  067%=      5-min Rain = 0
KSM2 071103Z 20010KT 22/16 A3002 RMK A01 T02230158  RH  067%=      5-min Rain = 0
KSM2 071104Z 20009KT 22/16 A3002 RMK A01 T02230158  RH  067%=      5-min Rain = 0
KSM2 071105Z 20008KT 22/16 A3002 RMK A01 T02230158  RH  067%=      5-min Rain = 0
KSM2 071106Z 20008KT 22/16 A3002 RMK A01 T02230158  RH  067%=      5-min Rain = 0
KSM2 071107Z 20008KT 22/16 A3002 RMK A01 T02230158  RH  067%=      5-min Rain = 0
KSM2 071108Z 20008KT 22/16 A3002 RMK A01 T02230158  RH  067%=      5-min Rain = 0
KSM2 071109Z 20008KT 22/16 A3002 RMK A01 T02230159  RH  067%=      5-min Rain = 0
KSM2 071110Z 20008KT 22/16 A3002 RMK A01 T02230159  RH  067%=      5-min Rain = 0
KSM2 071111Z 20009KT 22/16 A3002 RMK A01 T02230158  RH  067%=      5-min Rain = 0
KSM2 071112Z 20008KT 22/16 A3002 RMK A01 T02230158  RH  067%=      5-min Rain = 0
KSM2 071113Z 19009KT 22/16 A3002 RMK A01 T02230158  RH  067%=      5-min Rain = 0
KSM2 071114Z 20008KT 22/16 A3003 RMK A01 T02230158  RH  067%=      5-min Rain = 0
KSM2 071115Z 19008KT 22/16 A3003 RMK A01 T02240159  RH  067%=      5-min Rain = 0
KSM2 071116Z 19008KT 22/16 A3003 RMK A01 T02240159  RH  067%=      5-min Rain = 0
KSM2 071117Z 19009KT 22/16 A3003 RMK A01 T02240159  RH  067%=      5-min Rain = 0
KSM2 071118Z 20008KT 22/16 A3003 RMK A01 T02240159  RH  067%=      5-min Rain = 0
KSM2 071119Z 20008KT 22/16 A3003 RMK A01 T02240159  RH  067%=      5-min Rain = 0
KSM2 071120Z 20009KT 22/16 A3003 RMK A01 T02240159  RH  067%=      5-min Rain = 0
KSM2 071121Z 20008KT 22/16 A3003 RMK A01 T02240159  RH  067%=      5-min Rain = 0
KSM2 071122Z 20009KT 22/16 A3003 RMK A01 T02240159  RH  067%=      5-min Rain = 0
KSM2 071123Z 20009KT 22/16 A3003 RMK A01 T02240159  RH  067%=      5-min Rain = 0
KSM2 071124Z 20009KT 23/16 A3003 RMK A01 T02250160  RH  067%=      5-min Rain = 0
KSM2 071125Z 20009KT 23/16 A3003 RMK A01 T02250160  RH  067%=      5-min Rain = 0
KSM2 071126Z 19009KT 23/16 A3003 RMK A01 T02250160  RH  067%=      5-min Rain = 0
KSM2 071127Z 20009KT 22/16 A3003 RMK A01 T02240160  RH  067%=      5-min Rain = 0
KSM2 071128Z 19008KT 22/16 A3003 RMK A01 T02240160  RH  067%=      5-min Rain = 0
KSM2 071129Z 20009KT 22/16 A3003 RMK A01 T02240160  RH  067%=      5-min Rain = 0
KSM2 071130Z 19009KT 22/16 A3003 RMK A01 T02240160  RH  067%=      5-min Rain = 0
KSM2 071131Z 20009KT 22/16 A3003 RMK A01 T02240160  RH  067%=      5-min Rain = 0
KSM2 071132Z 19009KT 22/16 A3003 RMK A01 T02240161  RH  067%=      5-min Rain = 0
KSM2 071133Z 19009KT 22/16 A3003 RMK A01 T02240161  RH  067%=      5-min Rain = 0
KSM2 071134Z 20009KT 22/16 A3003 RMK A01 T02230160  RH  068%=      5-min Rain = 0
KSM2 071135Z 20009KT 22/16 A3003 RMK A01 T02230161  RH  068%=      5-min Rain = 0
KSM2 071136Z 19009KT 22/16 A3003 RMK A01 T02230160  RH  068%=      5-min Rain = 0
KSM2 071137Z 20009KT 22/16 A3003 RMK A01 T02230161  RH  068%=      5-min Rain = 0
KSM2 071138Z 20009KT 22/16 A3003 RMK A01 T02230160  RH  068%=      5-min Rain = 0
KSM2 071139Z 20009KT 22/16 A3003 RMK A01 T02230161  RH  068%=      5-min Rain = 0
KSM2 071140Z 20008KT 22/16 A3003 RMK A01 T02220161  RH  068%=      5-min Rain = 0
KSM2 071141Z 19009KT 22/16 A3003 RMK A01 T02220161  RH  068%=      5-min Rain = 0
KSM2 071142Z 20009KT 22/16 A3003 RMK A01 T02220161  RH  068%=      5-min Rain = 0
KSM2 071143Z 19009KT 22/16 A3003 RMK A01 T02210161  RH  068%=      5-min Rain = 0
KSM2 071144Z 19009KT 22/16 A3003 RMK A01 T02220161  RH  068%=      5-min Rain = 0
KSM2 071145Z 19009KT 22/16 A3003 RMK A01 T02220161  RH  069%=      5-min Rain = 0
KSM2 071146Z 19009KT 22/16 A3003 RMK A01 T02210161  RH  069%=      5-min Rain = 0
KSM2 071147Z 20008KT 22/16 A3003 RMK A01 T02210161  RH  069%=      5-min Rain = 0
KSM2 071148Z 20009KT 22/16 A3003 RMK A01 T02210161  RH  069%=      5-min Rain = 0
KSM2 071149Z 20009KT 22/16 A3003 RMK A01 T02210161  RH  069%=      5-min Rain = 0
KSM2 071150Z 20009KT 22/16 A3003 RMK A01 T02210161  RH  069%=      5-min Rain = 0
KSM2 071151Z 20008KT 22/16 A3003 RMK A01 T02200161  RH  069%=      5-min Rain = 0
KSM2 071152Z 19008KT 22/16 A3003 RMK A01 T02200161  RH  069%=      5-min Rain = 0
KSM2 071153Z 20008KT 22/16 A3003 RMK A01 T02190161  RH  069%=      5-min Rain = 0
KSM2 071154Z 19008KT 22/16 A3003 RMK A01 T02190161  RH  070%=      5-min Rain = 0
KSM2 071155Z 19007KT 22/16 A3003 RMK A01 T02190161  RH  070%=      5-min Rain = 0
KSM2 071156Z 19007KT 22/16 A3003 RMK A01 T02180161  RH  070%=      5-min Rain = 0
KSM2 071157Z 19007KT 22/16 A3003 RMK A01 T02180161  RH  070%=      5-min Rain = 0
KSM2 071158Z 19007KT 22/16 A3003 RMK A01 T02180161  RH  070%=      5-min Rain = 0
KSM2 071159Z 19006KT 22/16 A3003 RMK A01 T02180161  RH  070%=      5-min Rain = 0
KSM2 071200Z 18006KT 22/16 A3004 RMK A01 T02180161  RH  070%=      5-min Rain = 0
KSM2 071201Z 19007KT 22/16 A3004 RMK A01 T02170161  RH  070%=      5-min Rain = 0
KSM2 071202Z 19007KT 22/16 A3004 RMK A01 T02170161  RH  071%=      5-min Rain = 0
KSM2 071203Z 19007KT 22/16 A3004 RMK A01 T02170161  RH  071%=      5-min Rain = 0
KSM2 071204Z 19006KT 22/16 A3004 RMK A01 T02170161  RH  071%=      5-min Rain = 0
KSM2 071205Z 19006KT 22/16 A3004 RMK A01 T02170162  RH  071%=      5-min Rain = 0
KSM2 071206Z 19006KT 22/16 A3004 RMK A01 T02160162  RH  071%=      5-min Rain = 0
KSM2 071207Z 18007KT 22/16 A3004 RMK A01 T02160162  RH  071%=      5-min Rain = 0
KSM2 071208Z 19006KT 22/16 A3004 RMK A01 T02150162  RH  071%=      5-min Rain = 0
KSM2 071209Z 19006KT 22/16 A3004 RMK A01 T02160162  RH  072%=      5-min Rain = 0
KSM2 071210Z 19007KT 22/16 A3004 RMK A01 T02150162  RH  072%=      5-min Rain = 0
KSM2 071211Z 19006KT 22/16 A3004 RMK A01 T02150162  RH  072%=      5-min Rain = 0
KSM2 071212Z 19007KT 22/16 A3004 RMK A01 T02150162  RH  072%=      5-min Rain = 0
KSM2 071213Z 19007KT 21/16 A3004 RMK A01 T02140162  RH  072%=      5-min Rain = 0
KSM2 071214Z 19007KT 21/16 A3004 RMK A01 T02140162  RH  072%=      5-min Rain = 0
KSM2 071215Z 20008KT 21/16 A3004 RMK A01 T02140163  RH  072%=      5-min Rain = 0
KSM2 071216Z 20007KT 21/16 A3004 RMK A01 T02140163  RH  073%=      5-min Rain = 0
KSM2 071217Z 20006KT 21/16 A3004 RMK A01 T02140163  RH  073%=      5-min Rain = 0
KSM2 071218Z 20006KT 21/16 A3004 RMK A01 T02140163  RH  073%=      5-min Rain = 0
KSM2 071219Z 20006KT 21/16 A3004 RMK A01 T02140163  RH  072%=      5-min Rain = 0
KSM2 071220Z 20007KT 21/16 A3004 RMK A01 T02140163  RH  072%=      5-min Rain = 0
KSM2 071221Z 20006KT 21/16 A3004 RMK A01 T02140163  RH  073%=      5-min Rain = 0
KSM2 071222Z 20007KT 21/16 A3004 RMK A01 T02140163  RH  073%=      5-min Rain = 0
KSM2 071223Z 20007KT 21/16 A3004 RMK A01 T02140163  RH  073%=      5-min Rain = 0
KSM2 071224Z 19007KT 21/16 A3004 RMK A01 T02130163  RH  073%=      5-min Rain = 0
KSM2 071225Z 20006KT 21/16 A3004 RMK A01 T02130163  RH  073%=      5-min Rain = 0
KSM2 071226Z 19007KT 21/16 A3004 RMK A01 T02130163  RH  073%=      5-min Rain = 0
KSM2 071227Z 20007KT 21/16 A3004 RMK A01 T02130164  RH  073%=      5-min Rain = 0
KSM2 071228Z 20007KT 21/16 A3004 RMK A01 T02130163  RH  073%=      5-min Rain = 0
KSM2 071229Z 20007KT 21/16 A3004 RMK A01 T02130163  RH  073%=      5-min Rain = 0
KSM2 071230Z 20007KT 21/16 A3004 RMK A01 T02130163  RH  073%=      5-min Rain = 0
KSM2 071231Z 20007KT 21/16 A3004 RMK A01 T02130163  RH  073%=      5-min Rain = 0
KSM2 071232Z 20007KT 21/16 A3004 RMK A01 T02130164  RH  073%=      5-min Rain = 0
KSM2 071233Z 20008KT 21/16 A3004 RMK A01 T02130163  RH  073%=      5-min Rain = 0
KSM2 071234Z 20007KT 21/16 A3004 RMK A01 T02130164  RH  073%=      5-min Rain = 0
KSM2 071235Z 20007KT 21/16 A3004 RMK A01 T02130164  RH  074%=      5-min Rain = 0
KSM2 071236Z 19007KT 21/16 A3004 RMK A01 T02130164  RH  074%=      5-min Rain = 0
KSM2 071237Z 19007KT 21/16 A3004 RMK A01 T02130164  RH  074%=      5-min Rain = 0
KSM2 071238Z 19007KT 21/17 A3004 RMK A01 T02130165  RH  074%=      5-min Rain = 0
KSM2 071239Z 19008KT 21/16 A3004 RMK A01 T02130164  RH  074%=      5-min Rain = 0
KSM2 071240Z 19008KT 21/17 A3004 RMK A01 T02130165  RH  074%=      5-min Rain = 0
KSM2 071241Z 19007KT 21/17 A3004 RMK A01 T02130165  RH  074%=      5-min Rain = 0
KSM2 071242Z 19007KT 21/17 A3004 RMK A01 T02130165  RH  074%=      5-min Rain = 0
KSM2 071243Z 20008KT 21/17 A3004 RMK A01 T02130165  RH  074%=      5-min Rain = 0
KSM2 071244Z 19008KT 21/17 A3004 RMK A01 T02130165  RH  074%=      5-min Rain = 0
KSM2 071245Z 19007KT 21/17 A3004 RMK A01 T02130165  RH  074%=      5-min Rain = 0
KSM2 071246Z 19008KT 21/17 A3004 RMK A01 T02140166  RH  074%=      5-min Rain = 0
KSM2 071247Z 20008KT 21/17 A3004 RMK A01 T02140166  RH  074%=      5-min Rain = 0
KSM2 071248Z 20008KT 21/17 A3004 RMK A01 T02140166  RH  074%=      5-min Rain = 0
KSM2 071249Z 20008KT 21/17 A3004 RMK A01 T02140165  RH  074%=      5-min Rain = 0
KSM2 071250Z 19009KT 22/17 A3004 RMK A01 T02150165  RH  073%=      5-min Rain = 0
KSM2 071251Z 20008KT 22/17 A3004 RMK A01 T02160166  RH  073%=      5-min Rain = 0
KSM2 071252Z 20009KT 22/17 A3004 RMK A01 T02160166  RH  073%=      5-min Rain = 0
KSM2 071253Z 20007KT 22/17 A3004 RMK A01 T02160166  RH  073%=      5-min Rain = 0
KSM2 071254Z 20007KT 22/17 A3004 RMK A01 T02170166  RH  073%=      5-min Rain = 0
KSM2 071255Z 20007KT 22/17 A3004 RMK A01 T02170166  RH  073%=      5-min Rain = 0
KSM2 071256Z 20008KT 22/17 A3004 RMK A01 T02180166  RH  072%=      5-min Rain = 0
KSM2 071257Z 20008KT 22/17 A3005 RMK A01 T02190166  RH  072%=      5-min Rain = 0
KSM2 071258Z 20008KT 22/17 A3005 RMK A01 T02190166  RH  072%=      5-min Rain = 0
KSM2 071259Z 20008KT 22/17 A3005 RMK A01 T02190166  RH  072%=      5-min Rain = 0
KSM2 071300Z 20008KT 22/17 A3005 RMK A01 T02200166  RH  071%=      5-min Rain = 0
KSM2 071301Z 20008KT 22/17 A3005 RMK A01 T02200166  RH  071%=      5-min Rain = 0
KSM2 071302Z 20008KT 22/17 A3005 RMK A01 T02200166  RH  071%=      5-min Rain = 0
KSM2 071303Z 20008KT 22/17 A3005 RMK A01 T02210166  RH  071%=      5-min Rain = 0
KSM2 071304Z 20008KT 22/17 A3005 RMK A01 T02210166  RH  071%=      5-min Rain = 0
KSM2 071305Z 20008KT 22/17 A3005 RMK A01 T02220166  RH  071%=      5-min Rain = 0
KSM2 071306Z 20009KT 22/17 A3005 RMK A01 T02220166  RH  071%=      5-min Rain = 0
KSM2 071307Z 20008KT 22/17 A3005 RMK A01 T02220166  RH  070%=      5-min Rain = 0
KSM2 071308Z 20008KT 22/17 A3005 RMK A01 T02230167  RH  070%=      5-min Rain = 0
KSM2 071309Z 20009KT 22/17 A3005 RMK A01 T02230166  RH  070%=      5-min Rain = 0
KSM2 071310Z 19009KT 22/17 A3005 RMK A01 T02240166  RH  070%=      5-min Rain = 0
KSM2 071311Z 20008KT 23/17 A3005 RMK A01 T02250166  RH  070%=      5-min Rain = 0
KSM2 071312Z 19008KT 23/17 A3005 RMK A01 T02250167  RH  069%=      5-min Rain = 0
KSM2 071313Z 19008KT 23/17 A3005 RMK A01 T02260166  RH  069%=      5-min Rain = 0
KSM2 071314Z 19008KT 23/17 A3005 RMK A01 T02260166  RH  069%=      5-min Rain = 0
KSM2 071315Z 19009KT 23/17 A3005 RMK A01 T02270167  RH  069%=      5-min Rain = 0
KSM2 071316Z 20008KT 23/17 A3005 RMK A01 T02270167  RH  069%=      5-min Rain = 0
KSM2 071317Z 19007KT 23/17 A3005 RMK A01 T02280167  RH  068%=      5-min Rain = 0
KSM2 071318Z 20008KT 23/17 A3005 RMK A01 T02290167  RH  068%=      5-min Rain = 0
KSM2 071319Z 19009KT 23/17 A3005 RMK A01 T02290167  RH  068%=      5-min Rain = 0
KSM2 071320Z 19010KT 23/17 A3005 RMK A01 T02300166  RH  067%=      5-min Rain = 0
KSM2 071321Z 19010KT 23/17 A3005 RMK A01 T02310166  RH  067%=      5-min Rain = 0
KSM2 071322Z 19011KT 23/17 A3005 RMK A01 T02310166  RH  067%=      5-min Rain = 0
KSM2 071323Z 20011KT 23/17 A3005 RMK A01 T02320166  RH  066%=      5-min Rain = 0
KSM2 071324Z 20010KT 23/17 A3005 RMK A01 T02330166  RH  066%=      5-min Rain = 0
KSM2 071325Z 19009KT 23/17 A3005 RMK A01 T02330167  RH  066%=      5-min Rain = 0
KSM2 071326Z 19010KT 23/17 A3005 RMK A01 T02340166  RH  066%=      5-min Rain = 0
KSM2 071327Z 19009G14KT 24/17 A3005 RMK A01 T02350166  RH  065%=      5-min Rain = 0
KSM2 071328Z 20011KT 24/17 A3005 RMK A01 T02350166  RH  065%=      5-min Rain = 0
KSM2 071329Z 20011KT 24/17 A3005 RMK A01 T02360166  RH  065%=      5-min Rain = 0
KSM2 071330Z 20009KT 24/17 A3005 RMK A01 T02370167  RH  065%=      5-min Rain = 0
KSM2 071331Z 20009KT 24/17 A3005 RMK A01 T02380167  RH  064%=      5-min Rain = 0
KSM2 071332Z 19010KT 24/17 A3005 RMK A01 T02390167  RH  064%=      5-min Rain = 0
KSM2 071333Z 19010KT 24/17 A3005 RMK A01 T02390166  RH  064%=      5-min Rain = 0
KSM2 071334Z 19009KT 24/17 A3005 RMK A01 T02400166  RH  064%=      5-min Rain = 0
KSM2 071335Z 20009KT 24/17 A3005 RMK A01 T02410167  RH  063%=      5-min Rain = 0
KSM2 071336Z 20012KT 24/17 A3005 RMK A01 T02420166  RH  063%=      5-min Rain = 0
KSM2 071337Z 20011KT 24/17 A3005 RMK A01 T02420166  RH  062%=      5-min Rain = 0
KSM2 071338Z 19011KT 24/17 A3005 RMK A01 T02430166  RH  062%=      5-min Rain = 0
KSM2 071339Z 20012KT 24/17 A3005 RMK A01 T02440166  RH  062%=      5-min Rain = 0
KSM2 071340Z 19013KT 25/17 A3006 RMK A01 T02450166  RH  062%=      5-min Rain = 0
KSM2 071341Z 19013KT 25/17 A3006 RMK A01 T02450166  RH  061%=      5-min Rain = 0
KSM2 071342Z 19013KT 25/17 A3006 RMK A01 T02460166  RH  061%=      5-min Rain = 0
KSM2 071343Z 19014KT 25/17 A3006 RMK A01 T02470166  RH  061%=      5-min Rain = 0
KSM2 071344Z 19013KT 25/17 A3006 RMK A01 T02470166  RH  061%=      5-min Rain = 0
KSM2 071345Z 19014KT 25/17 A3006 RMK A01 T02480165  RH  060%=      5-min Rain = 0
KSM2 071346Z 19014KT 25/17 A3006 RMK A01 T02480166  RH  060%=      5-min Rain = 0
KSM2 071347Z 20011KT 25/17 A3006 RMK A01 T02500166  RH  060%=      5-min Rain = 0
KSM2 071348Z 20013KT 25/17 A3006 RMK A01 T02510166  RH  059%=      5-min Rain = 0
KSM2 071349Z 19011KT 25/17 A3006 RMK A01 T02520167  RH  059%=      5-min Rain = 0
KSM2 071350Z 19011KT 25/17 A3006 RMK A01 T02540168  RH  059%=      5-min Rain = 0
KSM2 071351Z 20012KT 26/17 A3006 RMK A01 T02550167  RH  058%=      5-min Rain = 0
KSM2 071352Z 20013KT 26/17 A3006 RMK A01 T02550167  RH  058%=      5-min Rain = 0
KSM2 071353Z 20013G18KT 26/17 A3006 RMK A01 T02550167  RH  058%=      5-min Rain = 0
KSM2 071354Z 19013G18KT 26/17 A3006 RMK A01 T02560167  RH  058%=      5-min Rain = 0
KSM2 071355Z 20016KT 26/17 A3006 RMK A01 T02560166  RH  057%=      5-min Rain = 0
KSM2 071356Z 19014KT 26/17 A3006 RMK A01 T02560166  RH  058%=      5-min Rain = 0
KSM2 071357Z 19016KT 26/17 A3006 RMK A01 T02550166  RH  058%=      5-min Rain = 0
KSM2 071358Z 20013KT 26/17 A3006 RMK A01 T02560167  RH  058%=      5-min Rain = 0
KSM2 071359Z 20016KT 26/17 A3006 RMK A01 T02570166  RH  057%=      5-min Rain = 0
KSM2 071400Z 20017KT 26/17 A3006 RMK A01 T02580166  RH  057%=      5-min Rain = 0
KSM2 071401Z 20016KT 26/17 A3006 RMK A01 T02570165  RH  057%=      5-min Rain = 0
KSM2 071402Z 20016KT 26/17 A3006 RMK A01 T02570165  RH  057%=      5-min Rain = 0
KSM2 071403Z 19015KT 26/17 A3006 RMK A01 T02560165  RH  057%=      5-min Rain = 0
KSM2 071404Z 19016KT 26/17 A3006 RMK A01 T02560165  RH  057%=      5-min Rain = 0
KSM2 071405Z 19015KT 26/16 A3006 RMK A01 T02550164  RH  057%=      5-min Rain = 0
KSM2 071406Z 19015KT 26/16 A3006 RMK A01 T02550164  RH  057%=      5-min Rain = 0
KSM2 071407Z 19017KT 26/16 A3006 RMK A01 T02550164  RH  057%=      5-min Rain = 0
KSM2 071408Z 20016KT 26/16 A3006 RMK A01 T02550164  RH  057%=      5-min Rain = 0
KSM2 071409Z 20016KT 26/16 A3006 RMK A01 T02550163  RH  057%=      5-min Rain = 0
KSM2 071410Z 19015KT 26/17 A3006 RMK A01 T02550165  RH  057%=      5-min Rain = 0
KSM2 071411Z 19016KT 26/17 A3006 RMK A01 T02550165  RH  057%=      5-min Rain = 0
KSM2 071412Z 19014KT 26/16 A3006 RMK A01 T02550164  RH  057%=      5-min Rain = 0
KSM2 071413Z 19016KT 26/16 A3006 RMK A01 T02550164  RH  057%=      5-min Rain = 0
KSM2 071414Z 20018KT 26/16 A3006 RMK A01 T02550163  RH  057%=      5-min Rain = 0
KSM2 071415Z 20018KT 25/16 A3006 RMK A01 T02540164  RH  057%=      5-min Rain = 0
KSM2 071416Z 20017KT 25/16 A3006 RMK A01 T02540163  RH  057%=      5-min Rain = 0
KSM2 071417Z 19016G21KT 25/16 A3006 RMK A01 T02540163  RH  057%=      5-min Rain = 0
KSM2 071418Z 20012G17KT 26/17 A3006 RMK A01 T02550165  RH  057%=      5-min Rain = 0
KSM2 071419Z 20013KT 26/17 A3007 RMK A01 T02590167  RH  057%=      5-min Rain = 0
KSM2 071420Z 21014G19KT 26/17 A3007 RMK A01 T02610166  RH  056%=      5-min Rain = 0
KSM2 071421Z 20017KT 26/16 A3007 RMK A01 T02610164  RH  055%=      5-min Rain = 0
KSM2 071422Z 20015KT 26/16 A3006 RMK A01 T02590164  RH  056%=      5-min Rain = 0
KSM2 071423Z 19014KT 26/16 A3007 RMK A01 T02580164  RH  056%=      5-min Rain = 0
KSM2 071424Z 20015KT 26/17 A3007 RMK A01 T02570165  RH  057%=      5-min Rain = 0
KSM2 071425Z 20013KT 26/16 A3006 RMK A01 T02570164  RH  056%=      5-min Rain = 0
KSM2 071426Z 20015KT 26/16 A3007 RMK A01 T02570164  RH  057%=      5-min Rain = 0
KSM2 071427Z 20014KT 26/16 A3007 RMK A01 T02570164  RH  056%=      5-min Rain = 0
KSM2 071428Z 20014KT 26/17 A3007 RMK A01 T02590165  RH  056%=      5-min Rain = 0
KSM2 071429Z 19013KT 26/17 A3007 RMK A01 T02600167  RH  056%=      5-min Rain = 0
KSM2 071430Z 20014KT 26/17 A3007 RMK A01 T02610166  RH  056%=      5-min Rain = 0
KSM2 071431Z 20013KT 26/17 A3007 RMK A01 T02610165  RH  056%=      5-min Rain = 0
KSM2 071432Z 21013KT 26/17 A3007 RMK A01 T02590166  RH  056%=      5-min Rain = 0
KSM2 071433Z 20012KT 26/17 A3007 RMK A01 T02600166  RH  056%=      5-min Rain = 0
KSM2 071434Z 19011KT 26/17 A3007 RMK A01 T02610168  RH  056%=      5-min Rain = 0
KSM2 071435Z 18011KT 26/17 A3007 RMK A01 T02620167  RH  056%=      5-min Rain = 0
KSM2 071436Z 19012KT 26/17 A3007 RMK A01 T02610167  RH  056%=      5-min Rain = 0
KSM2 071437Z 20013KT 26/17 A3007 RMK A01 T02610166  RH  056%=      5-min Rain = 0
KSM2 071438Z 20013KT 26/17 A3007 RMK A01 T02600166  RH  056%=      5-min Rain = 0
KSM2 071439Z 19012KT 26/17 A3007 RMK A01 T02600166  RH  056%=      5-min Rain = 0
KSM2 071440Z 19011KT 26/17 A3007 RMK A01 T02600168  RH  057%=      5-min Rain = 0
KSM2 071441Z 18010KT 27/17 A3007 RMK A01 T02650169  RH  055%=      5-min Rain = 0
KSM2 071442Z 19012KT 27/17 A3007 RMK A01 T02670166  RH  054%=      5-min Rain = 0
KSM2 071443Z 20015KT 27/16 A3007 RMK A01 T02660164  RH  053%=      5-min Rain = 0
KSM2 071444Z 20013KT 27/16 A3007 RMK A01 T02650164  RH  054%=      5-min Rain = 0
KSM2 071445Z 20014KT 27/17 A3007 RMK A01 T02650165  RH  054%=      5-min Rain = 0
KSM2 071446Z 19014KT 27/16 A3007 RMK A01 T02650164  RH  054%=      5-min Rain = 0
KSM2 071447Z 19013KT 27/17 A3007 RMK A01 T02660165  RH  054%=      5-min Rain = 0
KSM2 071448Z 19013KT 27/17 A3007 RMK A01 T02660166  RH  054%=      5-min Rain = 0
KSM2 071449Z 20014KT 27/17 A3007 RMK A01 T02670165  RH  054%=      5-min Rain = 0
KSM2 071450Z 20015KT 27/16 A3007 RMK A01 T02680163  RH  053%=      5-min Rain = 0
KSM2 071451Z 20016KT 27/16 A3007 RMK A01 T02670162  RH  053%=      5-min Rain = 0
KSM2 071452Z 18015KT 27/16 A3007 RMK A01 T02660163  RH  053%=      5-min Rain = 0
KSM2 071453Z 19016KT 27/16 A3007 RMK A01 T02680163  RH  053%=      5-min Rain = 0
KSM2 071454Z 19016KT 27/17 A3007 RMK A01 T02670165  RH  053%=      5-min Rain = 0
KSM2 071455Z 19014G19KT 27/17 A3007 RMK A01 T02670165  RH  053%=      5-min Rain = 0
KSM2 071456Z 19014G19KT 27/16 A3007 RMK A01 T02690164  RH  053%=      5-min Rain = 0
KSM2 071457Z 18015KT 27/16 A3007 RMK A01 T02690163  RH  052%=      5-min Rain = 0
KSM2 071458Z 19015KT 27/16 A3007 RMK A01 T02670162  RH  052%=      5-min Rain = 0
KSM2 071459Z 20015KT 27/16 A3007 RMK A01 T02670164  RH  053%=      5-min Rain = 0
KSM2 071500Z 20016KT 27/16 A3007 RMK A01 T02670164  RH  053%=      5-min Rain = 0
KSM2 071501Z 21014KT 27/16 A3007 RMK A01 T02670164  RH  053%=      5-min Rain = 0
KSM2 071502Z 20017KT 27/16 A3007 RMK A01 T02670163  RH  053%=      5-min Rain = 0
KSM2 071503Z 19017KT 27/16 A3007 RMK A01 T02680162  RH  052%=      5-min Rain = 0
KSM2 071504Z 19015KT 27/16 A3007 RMK A01 T02680163  RH  053%=      5-min Rain = 0
KSM2 071505Z 20013KT 27/16 A3007 RMK A01 T02690163  RH  052%=      5-min Rain = 0
KSM2 071506Z 21019KT 27/16 A3007 RMK A01 T02700162  RH  052%=      5-min Rain = 0
KSM2 071507Z 20018KT 27/16 A3007 RMK A01 T02690161  RH  052%=      5-min Rain = 0
KSM2 071508Z 20015KT 27/16 A3007 RMK A01 T02660163  RH  053%=      5-min Rain = 0
KSM2 071509Z 19019KT 27/16 A3007 RMK A01 T02680163  RH  053%=      5-min Rain = 0
KSM2 071510Z 19020KT 27/16 A3007 RMK A01 T02680162  RH  052%=      5-min Rain = 0
KSM2 071511Z 19018KT 27/16 A3007 RMK A01 T02680163  RH  053%=      5-min Rain = 0
KSM2 071512Z 20018KT 27/16 A3007 RMK A01 T02670164  RH  053%=      5-min Rain = 0
KSM2 071513Z 20018KT 27/16 A3007 RMK A01 T02680163  RH  053%=      5-min Rain = 0
KSM2 071514Z 20017KT 27/16 A3007 RMK A01 T02680163  RH  052%=      5-min Rain = 0
KSM2 071515Z 21018KT 27/16 A3007 RMK A01 T02690163  RH  052%=      5-min Rain = 0
KSM2 071516Z 21015KT 27/16 A3007 RMK A01 T02680163  RH  052%=      5-min Rain = 0
KSM2 071517Z 21018KT 27/16 A3007 RMK A01 T02700163  RH  052%=      5-min Rain = 0
KSM2 071518Z 20017KT 27/16 A3007 RMK A01 T02690163  RH  052%=      5-min Rain = 0
KSM2 071519Z 19018KT 27/16 A3007 RMK A01 T02690164  RH  053%=      5-min Rain = 0
KSM2 071520Z 21017KT 27/16 A3007 RMK A01 T02690164  RH  053%=      5-min Rain = 0
KSM2 071521Z 19018KT 27/16 A3007 RMK A01 T02690164  RH  052%=      5-min Rain = 0
KSM2 071522Z 19019KT 27/16 A3007 RMK A01 T02690164  RH  052%=      5-min Rain = 0
KSM2 071523Z 20018KT 27/16 A3008 RMK A01 T02700162  RH  051%=      5-min Rain = 0
KSM2 071524Z 20017KT 27/16 A3008 RMK A01 T02710161  RH  051%=      5-min Rain = 0
KSM2 071525Z 20016KT 27/16 A3008 RMK A01 T02720163  RH  051%=      5-min Rain = 0
KSM2 071526Z 19014KT 27/16 A3007 RMK A01 T02710164  RH  052%=      5-min Rain = 0
KSM2 071527Z 21017KT 27/16 A3007 RMK A01 T02730163  RH  051%=      5-min Rain = 0
KSM2 071528Z 21017KT 27/16 A3007 RMK A01 T02730163  RH  051%=      5-min Rain = 0
KSM2 071529Z 20015KT 27/16 A3007 RMK A01 T02710164  RH  052%=      5-min Rain = 0
KSM2 071530Z 19016KT 27/16 A3007 RMK A01 T02710164  RH  052%=      5-min Rain = 0
KSM2 071531Z 18014G19KT 27/17 A3007 RMK A01 T02740165  RH  051%=      5-min Rain = 0
KSM2 071532Z 19016KT 28/16 A3007 RMK A01 T02750164  RH  051%=      5-min Rain = 0
KSM2 071533Z 20016KT 27/17 A3007 RMK A01 T02740165  RH  051%=      5-min Rain = 0
KSM2 071534Z 20016KT 28/16 A3008 RMK A01 T02750164  RH  051%=      5-min Rain = 0
KSM2 071535Z 21016KT 28/16 A3007 RMK A01 T02760164  RH  050%=      5-min Rain = 0
KSM2 071536Z 20015KT 28/17 A3008 RMK A01 T02760165  RH  051%=      5-min Rain = 0
KSM2 071537Z 19014KT 28/17 A3007 RMK A01 T02770165  RH  051%=      5-min Rain = 0
KSM2 071538Z 19018KT 28/17 A3007 RMK A01 T02770165  RH  050%=      5-min Rain = 0
KSM2 071539Z 18014KT 28/17 A3007 RMK A01 T02770166  RH  051%=      5-min Rain = 0
KSM2 071540Z 19014KT 28/17 A3007 RMK A01 T02780165  RH  050%=      5-min Rain = 0
KSM2 071541Z 18014KT 28/17 A3007 RMK A01 T02780165  RH  050%=      5-min Rain = 0
KSM2 071542Z 17013KT 28/17 A3007 RMK A01 T02780166  RH  051%=      5-min Rain = 0
KSM2 071543Z 18014KT 28/17 A3007 RMK A01 T02780167  RH  051%=      5-min Rain = 0
KSM2 071544Z 20017KT 28/17 A3007 RMK A01 T02780167  RH  051%=      5-min Rain = 0
KSM2 071545Z 21017KT 28/16 A3007 RMK A01 T02800164  RH  049%=      5-min Rain = 0
KSM2 071546Z 21017G23KT 28/16 A3007 RMK A01 T02790163  RH  049%=      5-min Rain = 0
KSM2 071547Z 21016KT 28/16 A3007 RMK A01 T02790163  RH  049%=      5-min Rain = 0
KSM2 071548Z 20017G22KT 28/16 A3007 RMK A01 T02780164  RH  050%=      5-min Rain = 0
KSM2 071549Z 20016KT 28/16 A3007 RMK A01 T02780164  RH  050%=      5-min Rain = 0
KSM2 071550Z 21015KT 28/17 A3007 RMK A01 T02780165  RH  050%=      5-min Rain = 0
KSM2 071551Z 20015KT 28/17 A3007 RMK A01 T02810166  RH  050%=      5-min Rain = 0
KSM2 071552Z 20015G20KT 28/16 A3007 RMK A01 T02820164  RH  049%=      5-min Rain = 0
KSM2 071553Z 19016KT 28/17 A3007 RMK A01 T02810167  RH  050%=      5-min Rain = 0
KSM2 071554Z 18015KT 28/17 A3007 RMK A01 T02800166  RH  050%=      5-min Rain = 0
KSM2 071555Z 20017KT 28/17 A3007 RMK A01 T02800166  RH  050%=      5-min Rain = 0
KSM2 071556Z 20016KT 28/16 A3007 RMK A01 T02810164  RH  049%=      5-min Rain = 0
KSM2 071557Z 21017KT 28/16 A3007 RMK A01 T02810164  RH  049%=      5-min Rain = 0
KSM2 071558Z 19014KT 28/17 A3007 RMK A01 T02820166  RH  049%=      5-min Rain = 0
KSM2 071559Z 19016KT 28/17 A3008 RMK A01 T02840166  RH  049%=      5-min Rain = 0
KSM2 071600Z 18016G21KT 28/17 A3008 RMK A01 T02840165  RH  049%=      5-min Rain = 0
KSM2 071601Z 19014KT 28/17 A3008 RMK A01 T02820165  RH  049%=      5-min Rain = 0
KSM2 071602Z 19017KT 28/17 A3008 RMK A01 T02820166  RH  049%=      5-min Rain = 0
KSM2 071603Z 18015KT 28/17 A3008 RMK A01 T02820166  RH  050%=      5-min Rain = 0
KSM2 071604Z 19017G22KT 28/17 A3008 RMK A01 T02830166  RH  049%=      5-min Rain = 0
KSM2 071605Z 20015KT 28/17 A3008 RMK A01 T02830166  RH  049%=      5-min Rain = 0
KSM2 071606Z 18015G20KT 28/17 A3008 RMK A01 T02820165  RH  049%=      5-min Rain = 0
KSM2 071607Z 20016KT 28/16 A3008 RMK A01 T02810164  RH  049%=      5-min Rain = 0
KSM2 071608Z 19015KT 28/17 A3008 RMK A01 T02810165  RH  049%=      5-min Rain = 0
KSM2 071609Z 19015KT 28/17 A3008 RMK A01 T02820165  RH  049%=      5-min Rain = 0
KSM2 071610Z 19015KT 28/16 A3008 RMK A01 T02840164  RH  048%=      5-min Rain = 0
KSM2 071611Z 19014KT 28/17 A3008 RMK A01 T02840165  RH  048%=      5-min Rain = 0
KSM2 071612Z 18016KT 29/17 A3008 RMK A01 T02870165  RH  048%=      5-min Rain = 0
KSM2 071613Z 20016KT 29/16 A3008 RMK A01 T02870164  RH  048%=      5-min Rain = 0
KSM2 071614Z 21015KT 29/16 A3008 RMK A01 T02850164  RH  048%=      5-min Rain = 0
KSM2 071615Z 19013KT 29/17 A3008 RMK A01 T02860165  RH  048%=      5-min Rain = 0
KSM2 071616Z 19015KT 29/17 A3008 RMK A01 T02890165  RH  047%=      5-min Rain = 0
KSM2 071617Z 19014KT 29/17 A3008 RMK A01 T02910166  RH  047%=      5-min Rain = 0
KSM2 071618Z 19017KT 29/17 A3008 RMK A01 T02920166  RH  046%=      5-min Rain = 0
KSM2 071619Z 19014KT 29/17 A3008 RMK A01 T02920165  RH  046%=      5-min Rain = 0
KSM2 071620Z 18014KT 29/17 A3008 RMK A01 T02910165  RH  046%=      5-min Rain = 0
KSM2 071621Z 18015KT 29/17 A3008 RMK A01 T02900165  RH  047%=      5-min Rain = 0
KSM2 071622Z 19016KT 29/16 A3008 RMK A01 T02900163  RH  046%=      5-min Rain = 0
KSM2 071623Z 20015KT 29/16 A3008 RMK A01 T02890164  RH  047%=      5-min Rain = 0
KSM2 071624Z 19013KT 29/17 A3008 RMK A01 T02900165  RH  047%=      5-min Rain = 0
KSM2 071625Z 19013KT 29/17 A3008 RMK A01 T02910167  RH  047%=      5-min Rain = 0
KSM2 071626Z 19017KT 30/16 A3008 RMK A01 T02950164  RH  045%=      5-min Rain = 0
KSM2 071627Z 18015G20KT 30/16 A3008 RMK A01 T02960160  RH  044%=      5-min Rain = 0
KSM2 071628Z 19015KT 30/16 A3008 RMK A01 T02950159  RH  044%=      5-min Rain = 0
KSM2 071629Z 21015KT 29/16 A3008 RMK A01 T02940160  RH  044%=      5-min Rain = 0
KSM2 071630Z 19013KT 29/16 A3008 RMK A01 T02930161  RH  045%=      5-min Rain = 0
KSM2 071631Z 19015G20KT 30/16 A3008 RMK A01 T02950160  RH  044%=      5-min Rain = 0
KSM2 071632Z 20013KT 30/16 A3008 RMK A01 T02950162  RH  045%=      5-min Rain = 0
KSM2 071633Z 20016KT 30/16 A3008 RMK A01 T02960163  RH  045%=      5-min Rain = 0
KSM2 071634Z 21017KT 30/16 A3008 RMK A01 T02970157  RH  043%=      5-min Rain = 0
KSM2 071635Z 19015G20KT 30/16 A3008 RMK A01 T02950161  RH  044%=      5-min Rain = 0
KSM2 071636Z 20015KT 30/16 A3008 RMK A01 T02960163  RH  044%=      5-min Rain = 0
KSM2 071637Z 19014KT 30/16 A3008 RMK A01 T02970162  RH  044%=      5-min Rain = 0
KSM2 071638Z 20014KT 30/16 A3008 RMK A01 T02970163  RH  044%=      5-min Rain = 0
KSM2 071639Z 20015KT 30/16 A3008 RMK A01 T02970163  RH  044%=      5-min Rain = 0
KSM2 071640Z 20014KT 30/16 A3008 RMK A01 T02970163  RH  044%=      5-min Rain = 0
KSM2 071641Z 21015KT 30/16 A3008 RMK A01 T02970160  RH  043%=      5-min Rain = 0
KSM2 071642Z 19011KT 30/16 A3008 RMK A01 T02950162  RH  045%=      5-min Rain = 0
KSM2 071643Z 18014KT 30/16 A3008 RMK A01 T02960161  RH  044%=      5-min Rain = 0
KSM2 071644Z 19014G20KT 30/16 A3008 RMK A01 T02970161  RH  044%=      5-min Rain = 0
KSM2 071645Z 19015KT 30/16 A3009 RMK A01 T02980162  RH  044%=      5-min Rain = 0
KSM2 071646Z 19014KT 30/16 A3009 RMK A01 T02980164  RH  044%=      5-min Rain = 0
KSM2 071647Z 20013KT 30/16 A3008 RMK A01 T02960163  RH  045%=      5-min Rain = 0
KSM2 071648Z 19011KT 30/17 A3008 RMK A01 T02970165  RH  045%=      5-min Rain = 0
KSM2 071649Z 21012G17KT 30/16 A3008 RMK A01 T03010164  RH  044%=      5-min Rain = 0
KSM2 071650Z 21016KT 30/16 A3008 RMK A01 T03040164  RH  043%=      5-min Rain = 0
KSM2 071651Z 19015KT 30/16 A3008 RMK A01 T03030161  RH  042%=      5-min Rain = 0
KSM2 071652Z 20013KT 30/16 A3008 RMK A01 T03000163  RH  044%=      5-min Rain = 0
KSM2 071653Z 20014KT 30/17 A3008 RMK A01 T03020165  RH  044%=      5-min Rain = 0
KSM2 071654Z 20014KT 30/16 A3008 RMK A01 T03020162  RH  043%=      5-min Rain = 0
KSM2 071655Z 20011KT 30/16 A3008 RMK A01 T03000163  RH  044%=      5-min Rain = 0
KSM2 071656Z 21014KT 30/16 A3008 RMK A01 T03010164  RH  043%=      5-min Rain = 0
KSM2 071657Z 20012KT 30/16 A3008 RMK A01 T03020163  RH  043%=      5-min Rain = 0
KSM2 071658Z 18013KT 30/17 A3008 RMK A01 T03020165  RH  044%=      5-min Rain = 0
KSM2 071659Z 19013KT 30/16 A3008 RMK A01 T03040164  RH  043%=      5-min Rain = 0
KSM2 071700Z 20011KT 30/17 A3009 RMK A01 T03040166  RH  043%=      5-min Rain = 0
KSM2 071701Z 21016G21KT 31/16 A3008 RMK A01 T03080163  RH  042%=      5-min Rain = 0
KSM2 071702Z 21016KT 31/16 A3008 RMK A01 T03070164  RH  042%=      5-min Rain = 0
KSM2 071703Z 20014G19KT 31/16 A3008 RMK A01 T03050164  RH  043%=      5-min Rain = 0
KSM2 071704Z 20014KT 30/16 A3008 RMK A01 T03040164  RH  043%=      5-min Rain = 0
KSM2 071705Z 19013KT 30/17 A3008 RMK A01 T03030165  RH  044%=      5-min Rain = 0
KSM2 071706Z 21015KT 30/17 A3008 RMK A01 T03030165  RH  043%=      5-min Rain = 0
KSM2 071707Z 21016KT 30/16 A3008 RMK A01 T03020164  RH  043%=      5-min Rain = 0
KSM2 071708Z 21015KT 30/16 A3008 RMK A01 T03010162  RH  043%=      5-min Rain = 0
KSM2 071709Z 20013KT 30/17 A3008 RMK A01 T02990165  RH  044%=      5-min Rain = 0
KSM2 071710Z 19017KT 30/17 A3009 RMK A01 T03020165  RH  044%=      5-min Rain = 0
KSM2 071711Z 20013KT 30/16 A3008 RMK A01 T03020164  RH  043%=      5-min Rain = 0
KSM2 071712Z 19013KT 30/17 A3008 RMK A01 T03020166  RH  044%=      5-min Rain = 0
KSM2 071713Z 19015KT 30/17 A3008 RMK A01 T03040165  RH  043%=      5-min Rain = 0
KSM2 071714Z 20014KT 31/17 A3008 RMK A01 T03070166  RH  043%=      5-min Rain = 0
KSM2 071715Z 18013KT 31/17 A3008 RMK A01 T03080169  RH  043%=      5-min Rain = 0
KSM2 071716Z 18015KT 31/17 A3008 RMK A01 T03080168  RH  043%=      5-min Rain = 0
KSM2 071717Z 19011G16KT 31/17 A3008 RMK A01 T03070168  RH  043%=      5-min Rain = 0
KSM2 071718Z 20012KT 31/17 A3008 RMK A01 T03070170  RH  044%=      5-min Rain = 0
KSM2 071719Z 20014KT 31/17 A3008 RMK A01 T03090169  RH  043%=      5-min Rain = 0
KSM2 071720Z 19018KT 31/17 A3008 RMK A01 T03070167  RH  043%=      5-min Rain = 0
KSM2 071721Z 20015KT 31/17 A3008 RMK A01 T03050167  RH  044%=      5-min Rain = 0
KSM2 071722Z 20014KT 30/17 A3008 RMK A01 T03030167  RH  044%=      5-min Rain = 0
KSM2 071723Z 19012KT 30/17 A3008 RMK A01 T03030168  RH  044%=      5-min Rain = 0
KSM2 071724Z 20014KT 31/17 A3008 RMK A01 T03080168  RH  043%=      5-min Rain = 0
KSM2 071725Z 20014KT 31/17 A3008 RMK A01 T03080168  RH  043%=      5-min Rain = 0
KSM2 071726Z 19014KT 31/17 A3008 RMK A01 T03070167  RH  043%=      5-min Rain = 0
KSM2 071727Z 20014KT 31/17 A3008 RMK A01 T03090167  RH  042%=      5-min Rain = 0
KSM2 071728Z 19012KT 31/17 A3008 RMK A01 T03120169  RH  042%=      5-min Rain = 0
KSM2 071729Z 20011KT 31/17 A3008 RMK A01 T03110168  RH  042%=      5-min Rain = 0
KSM2 071730Z 22012KT 31/17 A3008 RMK A01 T03120166  RH  041%=      5-min Rain = 0
KSM2 071731Z 22013KT 31/17 A3008 RMK A01 T03130165  RH  041%=      5-min Rain = 0
KSM2 071732Z 21013KT 31/17 A3008 RMK A01 T03120165  RH  041%=      5-min Rain = 0
KSM2 071733Z 21014KT 31/17 A3008 RMK A01 T03120167  RH  042%=      5-min Rain = 0
KSM2 071734Z 20013KT 31/17 A3008 RMK A01 T03140165  RH  041%=      5-min Rain = 0
KSM2 071735Z 21015KT 31/16 A3008 RMK A01 T03140158  RH  039%=      5-min Rain = 0
KSM2 071736Z 20016KT 31/15 A3008 RMK A01 T03130154  RH  038%=      5-min Rain = 0
KSM2 071737Z 20015G20KT 31/15 A3008 RMK A01 T03130154  RH  038%=      5-min Rain = 0
KSM2 071738Z 18015KT 31/16 A3008 RMK A01 T03120159  RH  040%=      5-min Rain = 0
KSM2 071739Z 18014KT 31/16 A3008 RMK A01 T03120161  RH  040%=      5-min Rain = 0
KSM2 071740Z 18017KT 31/16 A3008 RMK A01 T03130163  RH  041%=      5-min Rain = 0
KSM2 071741Z 19016KT 31/16 A3008 RMK A01 T03130163  RH  041%=      5-min Rain = 0
KSM2 071742Z 20013KT 31/16 A3008 RMK A01 T03120164  RH  041%=      5-min Rain = 0
KSM2 071743Z 21013KT 31/16 A3008 RMK A01 T03110162  RH  041%=      5-min Rain = 0
KSM2 071744Z 20014KT 31/16 A3008 RMK A01 T03090162  RH  041%=      5-min Rain = 0
KSM2 071745Z 20017KT 31/16 A3008 RMK A01 T03130163  RH  040%=      5-min Rain = 0
KSM2 071746Z 19013KT 31/16 A3008 RMK A01 T03140163  RH  040%=      5-min Rain = 0
KSM2 071747Z 21013KT 31/16 A3007 RMK A01 T03130163  RH  041%=      5-min Rain = 0
KSM2 071748Z 20013KT 31/17 A3007 RMK A01 T03140167  RH  041%=      5-min Rain = 0
KSM2 071749Z 18013KT 32/17 A3007 RMK A01 T03190165  RH  040%=      5-min Rain = 0
KSM2 071750Z 18013KT 32/16 A3007 RMK A01 T03200161  RH  038%=      5-min Rain = 0
KSM2 071751Z 18013KT 32/16 A3007 RMK A01 T03180159  RH  038%=      5-min Rain = 0
KSM2 071752Z 19015KT 32/16 A3007 RMK A01 T03160162  RH  039%=      5-min Rain = 0
KSM2 071753Z 19013G18KT 32/16 A3007 RMK A01 T03150162  RH  040%=      5-min Rain = 0
KSM2 071754Z 19015KT 32/16 A3007 RMK A01 T03150164  RH  040%=      5-min Rain = 0
KSM2 071755Z 20013KT 31/16 A3007 RMK A01 T03140164  RH  041%=      5-min Rain = 0
KSM2 071756Z 19014KT 31/17 A3007 RMK A01 T03130165  RH  041%=      5-min Rain = 0
KSM2 071757Z 17012KT 31/16 A3007 RMK A01 T03120163  RH  041%=      5-min Rain = 0
KSM2 071758Z 19014KT 32/16 A3007 RMK A01 T03150160  RH  039%=      5-min Rain = 0
KSM2 071759Z 19014KT 32/16 A3007 RMK A01 T03170158  RH  038%=      5-min Rain = 0
KSM2 071800Z 18016KT 32/16 A3007 RMK A01 T03170159  RH  039%=      5-min Rain = 0
KSM2 071801Z 18014KT 32/16 A3007 RMK A01 T03170160  RH  039%=      5-min Rain = 0
KSM2 071802Z 18015KT 32/16 A3007 RMK A01 T03170161  RH  039%=      5-min Rain = 0
KSM2 071803Z 18010KT 32/16 A3007 RMK A01 T03170162  RH  039%=      5-min Rain = 0
KSM2 071804Z 19015KT 32/16 A3007 RMK A01 T03200163  RH  039%=      5-min Rain = 0
KSM2 071805Z 18015KT 32/16 A3007 RMK A01 T03200161  RH  038%=      5-min Rain = 0
KSM2 071806Z 20013KT 32/16 A3007 RMK A01 T03170162  RH  039%=      5-min Rain = 0
KSM2 071807Z 20012KT 32/17 A3007 RMK A01 T03190166  RH  040%=      5-min Rain = 0
KSM2 071808Z 19011KT 32/17 A3007 RMK A01 T03220166  RH  039%=      5-min Rain = 0
KSM2 071809Z 17013G18KT 32/16 A3007 RMK A01 T03240163  RH  038%=      5-min Rain = 0
KSM2 071810Z 17013KT 32/16 A3007 RMK A01 T03240162  RH  038%=      5-min Rain = 0
KSM2 071811Z 17010KT 32/16 A3006 RMK A01 T03240164  RH  038%=      5-min Rain = 0
KSM2 071812Z 18013KT 33/16 A3007 RMK A01 T03260160  RH  037%=      5-min Rain = 0
KSM2 071813Z 19016KT 33/16 A3006 RMK A01 T03250164  RH  038%=      5-min Rain = 0
KSM2 071814Z 20014KT 33/17 A3007 RMK A01 T03280166  RH  038%=      5-min Rain = 0
KSM2 071815Z 21013KT 33/16 A3007 RMK A01 T03260162  RH  038%=      5-min Rain = 0
KSM2 071816Z 21013KT 32/16 A3006 RMK A01 T03220160  RH  038%=      5-min Rain = 0
KSM2 071817Z 18014KT 32/16 A3006 RMK A01 T03220160  RH  038%=      5-min Rain = 0
KSM2 071818Z 16014KT 32/16 A3006 RMK A01 T03230157  RH  037%=      5-min Rain = 0
KSM2 071819Z 17013KT 33/16 A3006 RMK A01 T03260161  RH  037%=      5-min Rain = 0
KSM2 071820Z 17014KT 33/16 A3006 RMK A01 T03270160  RH  037%=      5-min Rain = 0
KSM2 071821Z 16011KT 33/16 A3006 RMK A01 T03250158  RH  037%=      5-min Rain = 0
KSM2 071822Z 17011KT 32/16 A3006 RMK A01 T03230158  RH  037%=      5-min Rain = 0
KSM2 071823Z 21012KT 32/16 A3006 RMK A01 T03230159  RH  037%=      5-min Rain = 0
KSM2 071824Z 20016KT 33/16 A3006 RMK A01 T03270160  RH  037%=      5-min Rain = 0
KSM2 071825Z 18013KT 33/16 A3006 RMK A01 T03290158  RH  036%=      5-min Rain = 0
KSM2 071826Z 18010KT 33/16 A3006 RMK A01 T03260158  RH  036%=      5-min Rain = 0
KSM2 071827Z 20014KT 33/15 A3006 RMK A01 T03270153  RH  035%=      5-min Rain = 0
KSM2 071828Z 21015KT 33/15 A3006 RMK A01 T03290151  RH  034%=      5-min Rain = 0
KSM2 071829Z 19014KT 33/16 A3007 RMK A01 T03270156  RH  036%=      5-min Rain = 0
KSM2 071830Z 20014KT 33/16 A3007 RMK A01 T03300156  RH  035%=      5-min Rain = 0
KSM2 071831Z 20018KT 33/15 A3006 RMK A01 T03280153  RH  035%=      5-min Rain = 0
KSM2 071832Z 18013G19KT 32/15 A3007 RMK A01 T03240153  RH  036%=      5-min Rain = 0
KSM2 071833Z 18011G17KT 33/16 A3007 RMK A01 T03250155  RH  036%=      5-min Rain = 0
KSM2 071834Z 20015KT 33/16 A3007 RMK A01 T03280156  RH  036%=      5-min Rain = 0
KSM2 071835Z 19015KT 33/16 A3006 RMK A01 T03270160  RH  037%=      5-min Rain = 0
KSM2 071836Z 17011KT 33/16 A3006 RMK A01 T03280160  RH  037%=      5-min Rain = 0
KSM2 071837Z 20013KT 33/16 A3006 RMK A01 T03280159  RH  036%=      5-min Rain = 0
KSM2 071838Z 21015KT 33/16 A3006 RMK A01 T03280157  RH  036%=      5-min Rain = 0
KSM2 071839Z 19014G19KT 33/16 A3006 RMK A01 T03300160  RH  036%=      5-min Rain = 0
KSM2 071840Z 19013KT 33/16 A3006 RMK A01 T03290161  RH  037%=      5-min Rain = 0
KSM2 071841Z 20011KT 33/16 A3006 RMK A01 T03300163  RH  037%=      5-min Rain = 0
KSM2 071842Z 19012KT 33/16 A3006 RMK A01 T03330161  RH  036%=      5-min Rain = 0
KSM2 071843Z 21014KT 34/16 A3006 RMK A01 T03350161  RH  035%=      5-min Rain = 0
KSM2 071844Z 19015KT 33/16 A3006 RMK A01 T03340160  RH  035%=      5-min Rain = 0
KSM2 071845Z 18016KT 33/16 A3006 RMK A01 T03310160  RH  036%=      5-min Rain = 0
KSM2 071846Z 20012KT 33/16 A3006 RMK A01 T03310156  RH  035%=      5-min Rain = 0
KSM2 071847Z 20011KT 33/16 A3006 RMK A01 T03290155  RH  035%=      5-min Rain = 0
KSM2 071848Z 20012KT 33/16 A3006 RMK A01 T03280158  RH  036%=      5-min Rain = 0
KSM2 071849Z 20013KT 33/16 A3006 RMK A01 T03330158  RH  035%=      5-min Rain = 0
KSM2 071850Z 19013G19KT 33/16 A3006 RMK A01 T03330163  RH  036%=      5-min Rain = 0
KSM2 071851Z 19014G19KT 34/16 A3006 RMK A01 T03360163  RH  036%=      5-min Rain = 0
KSM2 071852Z 19011KT 34/16 A3006 RMK A01 T03360161  RH  035%=      5-min Rain = 0
KSM2 071853Z 20013KT 34/17 A3006 RMK A01 T03360165  RH  036%=      5-min Rain = 0
KSM2 071854Z 18009KT 34/16 A3006 RMK A01 T03370159  RH  034%=      5-min Rain = 0
KSM2 071855Z 18012KT 34/16 A3006 RMK A01 T03370160  RH  035%=      5-min Rain = 0
KSM2 071856Z 20013G19KT 34/16 A3006 RMK A01 T03360162  RH  035%=      5-min Rain = 0
KSM2 071857Z 20015G20KT 34/17 A3006 RMK A01 T03380166  RH  036%=      5-min Rain = 0
KSM2 071858Z 21014KT 34/17 A3006 RMK A01 T03390165  RH  035%=      5-min Rain = 0
KSM2 071859Z 18012KT 34/17 A3006 RMK A01 T03370166  RH  036%=      5-min Rain = 0
KSM2 071900Z 20007KT 34/16 A3006 RMK A01 T03360164  RH  036%=      5-min Rain = 0
KSM2 071901Z 19009G14KT 34/17 A3006 RMK A01 T03350165  RH  036%=      5-min Rain = 0
KSM2 071902Z 17011G16KT 34/17 A3006 RMK A01 T03380169  RH  037%=      5-min Rain = 0
KSM2 071903Z 20013G18KT 34/17 A3006 RMK A01 T03410167  RH  035%=      5-min Rain = 0
KSM2 071904Z 21013KT 34/16 A3006 RMK A01 T03380164  RH  035%=      5-min Rain = 0
KSM2 071905Z 21010KT 34/16 A3006 RMK A01 T03350162  RH  035%=      5-min Rain = 0
KSM2 071906Z 21012KT 34/17 A3005 RMK A01 T03390170  RH  037%=      5-min Rain = 0
KSM2 071907Z 20013KT 35/17 A3005 RMK A01 T03450170  RH  035%=      5-min Rain = 0
KSM2 071908Z 20011KT 34/17 A3005 RMK A01 T03440169  RH  035%=      5-min Rain = 0
KSM2 071909Z 19013KT 34/17 A3005 RMK A01 T03420167  RH  035%=      5-min Rain = 0
KSM2 071910Z 18014KT 34/17 A3005 RMK A01 T03380165  RH  035%=      5-min Rain = 0
KSM2 071911Z 16009KT 34/17 A3005 RMK A01 T03360166  RH  036%=      5-min Rain = 0
KSM2 071912Z 19012G20KT 34/17 A3005 RMK A01 T03390165  RH  035%=      5-min Rain = 0
KSM2 071913Z 19016KT 34/16 A3005 RMK A01 T03420160  RH  034%=      5-min Rain = 0
KSM2 071914Z 19016KT 34/16 A3005 RMK A01 T03400159  RH  034%=      5-min Rain = 0
KSM2 071915Z 19014KT 34/16 A3005 RMK A01 T03380158  RH  034%=      5-min Rain = 0
KSM2 071916Z 17012G18KT 34/16 A3005 RMK A01 T03380158  RH  034%=      5-min Rain = 0
KSM2 071917Z 16013KT 34/16 A3005 RMK A01 T03410155  RH  033%=      5-min Rain = 0
KSM2 071918Z 20014G19KT 34/16 A3005 RMK A01 T03420155  RH  033%=      5-min Rain = 0
KSM2 071919Z 19018KT 34/15 A3005 RMK A01 T03420147  RH  031%=      5-min Rain = 0
KSM2 071920Z 21016KT 34/14 A3005 RMK A01 T03410136  RH  029%=      5-min Rain = 0
KSM2 071921Z 20015G20KT 34/14 A3005 RMK A01 T03400138  RH  030%=      5-min Rain = 0
KSM2 071922Z 20014KT 34/14 A3005 RMK A01 T03430141  RH  030%=      5-min Rain = 0
KSM2 071923Z 21013KT 34/14 A3005 RMK A01 T03430138  RH  029%=      5-min Rain = 0
KSM2 071924Z 21014KT 34/14 A3005 RMK A01 T03410137  RH  029%=      5-min Rain = 0
KSM2 071925Z 22014KT 34/15 A3005 RMK A01 T03410146  RH  031%=      5-min Rain = 0
KSM2 071926Z 19014KT 34/15 A3005 RMK A01 T03430149  RH  031%=      5-min Rain = 0
KSM2 071927Z 17008KT 34/15 A3005 RMK A01 T03430148  RH  031%=      5-min Rain = 0
KSM2 071928Z 18014KT 35/15 A3005 RMK A01 T03470151  RH  031%=      5-min Rain = 0
KSM2 071929Z 19014KT 35/14 A3005 RMK A01 T03470142  RH  029%=      5-min Rain = 0
KSM2 071930Z 18013G18KT 34/15 A3005 RMK A01 T03440147  RH  031%=      5-min Rain = 0
KSM2 071931Z 18014G19KT 35/15 A3005 RMK A01 T03460149  RH  031%=      5-min Rain = 0
KSM2 071932Z 17010KT 35/15 A3005 RMK A01 T03450149  RH  031%=      5-min Rain = 0
KSM2 071933Z 17009KT 34/15 A3005 RMK A01 T03440150  RH  031%=      5-min Rain = 0
KSM2 071934Z 19013KT 34/15 A3005 RMK A01 T03430154  RH  032%=      5-min Rain = 0
KSM2 071935Z 21014KT 35/16 A3004 RMK A01 T03450155  RH  032%=      5-min Rain = 0
KSM2 071936Z 18014KT 34/16 A3005 RMK A01 T03440157  RH  033%=      5-min Rain = 0
KSM2 071937Z 19014KT 34/15 A3005 RMK A01 T03440151  RH  032%=      5-min Rain = 0
KSM2 071938Z 18011KT 34/14 A3004 RMK A01 T03430144  RH  030%=      5-min Rain = 0
KSM2 071939Z 16011KT 34/15 A3004 RMK A01 T03430148  RH  031%=      5-min Rain = 0
KSM2 071940Z 16011KT 35/15 A3004 RMK A01 T03480151  RH  031%=      5-min Rain = 0
KSM2 071941Z 16014KT 35/16 A3004 RMK A01 T03470157  RH  032%=      5-min Rain = 0
KSM2 071942Z 16012KT 34/16 A3004 RMK A01 T03430157  RH  033%=      5-min Rain = 0
KSM2 071943Z 17013KT 34/16 A3004 RMK A01 T03420159  RH  033%=      5-min Rain = 0
KSM2 071944Z 17013G18KT 34/16 A3004 RMK A01 T03430160  RH  034%=      5-min Rain = 0
KSM2 071945Z 19015G20KT 34/15 A3004 RMK A01 T03430154  RH  032%=      5-min Rain = 0
KSM2 071946Z 17013KT 34/15 A3004 RMK A01 T03430145  RH  030%=      5-min Rain = 0
KSM2 071947Z 19011KT 34/15 A3004 RMK A01 T03440152  RH  032%=      5-min Rain = 0
KSM2 071948Z 17015KT 35/16 A3004 RMK A01 T03460158  RH  033%=      5-min Rain = 0
KSM2 071949Z 17012KT 35/16 A3004 RMK A01 T03460162  RH  033%=      5-min Rain = 0
KSM2 071950Z 17012KT 35/16 A3004 RMK A01 T03470159  RH  033%=      5-min Rain = 0
KSM2 071951Z 18011KT 34/16 A3004 RMK A01 T03430156  RH  033%=      5-min Rain = 0
KSM2 071952Z 17011KT 34/16 A3004 RMK A01 T03430156  RH  033%=      5-min Rain = 0
KSM2 071953Z 17015KT 35/14 A3004 RMK A01 T03450142  RH  030%=      5-min Rain = 0
KSM2 071954Z 19016KT 35/15 A3004 RMK A01 T03460146  RH  030%=      5-min Rain = 0
KSM2 071955Z 18011KT 35/15 A3004 RMK A01 T03460147  RH  030%=      5-min Rain = 0
KSM2 071956Z 19013KT 35/15 A3004 RMK A01 T03460150  RH  031%=      5-min Rain = 0
KSM2 071957Z 18013G19KT 35/15 A3004 RMK A01 T03470154  RH  032%=      5-min Rain = 0
KSM2 071958Z 17012KT 35/16 A3004 RMK A01 T03470158  RH  032%=      5-min Rain = 0
KSM2 071959Z 17013KT 35/16 A3004 RMK A01 T03480155  RH  031%=      5-min Rain = 0
KSM2 072000Z 20015KT 35/15 A3004 RMK A01 T03480153  RH  031%=      5-min Rain = 0
KSM2 072001Z 18013KT 35/15 A3004 RMK A01 T03480153  RH  031%=      5-min Rain = 0
KSM2 072002Z 17010KT 35/16 A3004 RMK A01 T03470156  RH  032%=      5-min Rain = 0
KSM2 072003Z 20013KT 35/15 A3004 RMK A01 T03460151  RH  031%=      5-min Rain = 0
KSM2 072004Z 19015G21KT 35/15 A3004 RMK A01 T03460151  RH  031%=      5-min Rain = 0
KSM2 072005Z 18015KT 35/15 A3004 RMK A01 T03510151  RH  030%=      5-min Rain = 0
KSM2 072006Z 18013KT 35/14 A3004 RMK A01 T03490142  RH  029%=      5-min Rain = 0
KSM2 072007Z 19012KT 35/14 A3004 RMK A01 T03460136  RH  028%=      5-min Rain = 0
KSM2 072008Z 17014KT 35/14 A3004 RMK A01 T03450137  RH  029%=      5-min Rain = 0
KSM2 072009Z 18012KT 35/14 A3004 RMK A01 T03460140  RH  029%=      5-min Rain = 0
KSM2 072010Z 19012KT 35/15 A3004 RMK A01 T03460152  RH  031%=      5-min Rain = 0
KSM2 072011Z 18013KT 35/15 A3004 RMK A01 T03460149  RH  031%=      5-min Rain = 0
KSM2 072012Z 18016KT 35/14 A3004 RMK A01 T03460142  RH  029%=      5-min Rain = 0
KSM2 072013Z 18012KT 35/14 A3004 RMK A01 T03450136  RH  028%=      5-min Rain = 0
KSM2 072014Z 17010KT 35/14 A3004 RMK A01 T03450141  RH  029%=      5-min Rain = 0
KSM2 072015Z 16012KT 35/14 A3004 RMK A01 T03470141  RH  029%=      5-min Rain = 0
KSM2 072016Z 17011KT 35/14 A3004 RMK A01 T03480142  RH  029%=      5-min Rain = 0
KSM2 072017Z 18011KT 35/14 A3004 RMK A01 T03500143  RH  029%=      5-min Rain = 0
KSM2 072018Z 20012KT 35/14 A3004 RMK A01 T03540143  RH  028%=      5-min Rain = 0
KSM2 072019Z 20013KT 35/15 A3003 RMK A01 T03530146  RH  029%=      5-min Rain = 0
KSM2 072020Z 20013KT 35/14 A3003 RMK A01 T03520144  RH  029%=      5-min Rain = 0
KSM2 072021Z 21014KT 35/13 A3003 RMK A01 T03530126  RH  026%=      5-min Rain = 0
KSM2 072022Z 19013KT 35/13 A3004 RMK A01 T03520131  RH  026%=      5-min Rain = 0
KSM2 072023Z 19016KT 35/14 A3003 RMK A01 T03530139  RH  028%=      5-min Rain = 0
KSM2 072024Z 19015KT 35/13 A3004 RMK A01 T03510130  RH  027%=      5-min Rain = 0
KSM2 072025Z 20010KT 35/13 A3004 RMK A01 T03470128  RH  027%=      5-min Rain = 0
KSM2 072026Z 19013G18KT 35/13 A3004 RMK A01 T03510129  RH  026%=      5-min Rain = 0
KSM2 072027Z 18011KT 35/12 A3004 RMK A01 T03510124  RH  025%=      5-min Rain = 0
KSM2 072028Z 16013KT 35/12 A3003 RMK A01 T03490116  RH  024%=      5-min Rain = 0
KSM2 072029Z 19014KT 35/13 A3003 RMK A01 T03490127  RH  026%=      5-min Rain = 0
KSM2 072030Z 17012G17KT 35/13 A3003 RMK A01 T03520130  RH  026%=      5-min Rain = 0
KSM2 072031Z 19016KT 35/14 A3004 RMK A01 T03540140  RH  028%=      5-min Rain = 0
KSM2 072032Z 18015G20KT 35/14 A3003 RMK A01 T03500138  RH  028%=      5-min Rain = 0
KSM2 072033Z 18015KT 35/14 A3003 RMK A01 T03490140  RH  029%=      5-min Rain = 0
KSM2 072034Z 19016G21KT 35/14 A3003 RMK A01 T03500144  RH  029%=      5-min Rain = 0
KSM2 072035Z 19012KT 35/14 A3003 RMK A01 T03500139  RH  028%=      5-min Rain = 0
KSM2 072036Z 19013KT 35/14 A3003 RMK A01 T03510140  RH  028%=      5-min Rain = 0
KSM2 072037Z 19013KT 35/13 A3003 RMK A01 T03530131  RH  026%=      5-min Rain = 0
KSM2 072038Z 21015KT 35/13 A3003 RMK A01 T03520128  RH  026%=      5-min Rain = 0
KSM2 072039Z 21014KT 35/12 A3003 RMK A01 T03540117  RH  024%=      5-min Rain = 0
KSM2 072040Z 18012KT 36/13 A3003 RMK A01 T03560131  RH  026%=      5-min Rain = 0
KSM2 072041Z 18010KT 36/14 A3003 RMK A01 T03590136  RH  026%=      5-min Rain = 0
KSM2 072042Z 20014KT 36/13 A3003 RMK A01 T03580133  RH  026%=      5-min Rain = 0
KSM2 072043Z 20014G19KT 36/12 A3003 RMK A01 T03550124  RH  025%=      5-min Rain = 0
KSM2 072044Z 18016KT 36/12 A3003 RMK A01 T03560121  RH  024%=      5-min Rain = 0
KSM2 072045Z 19013KT 35/11 A3003 RMK A01 T03540113  RH  023%=      5-min Rain = 0
KSM2 072046Z 20014KT 35/11 A3003 RMK A01 T03540106  RH  022%=      5-min Rain = 0
KSM2 072047Z 18013KT 35/13 A3003 RMK A01 T03540126  RH  025%=      5-min Rain = 0
KSM2 072048Z 20014G19KT 35/12 A3003 RMK A01 T03530121  RH  025%=      5-min Rain = 0
KSM2 072049Z 20016KT 36/12 A3003 RMK A01 T03550120  RH  024%=      5-min Rain = 0
KSM2 072050Z 19012KT 35/12 A3003 RMK A01 T03530121  RH  025%=      5-min Rain = 0
KSM2 072051Z 19014KT 35/12 A3003 RMK A01 T03520122  RH  025%=      5-min Rain = 0
KSM2 072052Z 19013KT 35/13 A3003 RMK A01 T03520129  RH  026%=      5-min Rain = 0
KSM2 072053Z 19014KT 35/12 A3003 RMK A01 T03510119  RH  025%=      5-min Rain = 0
KSM2 072054Z 21011G16KT 35/12 A3003 RMK A01 T03510123  RH  025%=      5-min Rain = 0
KSM2 072055Z 21015KT 35/13 A3003 RMK A01 T03540129  RH  026%=      5-min Rain = 0
KSM2 072056Z 21015KT 35/11 A3003 RMK A01 T03540108  RH  023%=      5-min Rain = 0
KSM2 072057Z 21013KT 35/11 A3003 RMK A01 T03520113  RH  023%=      5-min Rain = 0
KSM2 072058Z 20013KT 35/12 A3003 RMK A01 T03540123  RH  025%=      5-min Rain = 0
KSM2 072059Z 20017KT 35/13 A3003 RMK A01 T03540131  RH  026%=      5-min Rain = 0
KSM2 072100Z 18016KT 35/13 A3003 RMK A01 T03530132  RH  027%=      5-min Rain = 0
KSM2 072101Z 18010KT 35/13 A3003 RMK A01 T03510125  RH  026%=      5-min Rain = 0
KSM2 072102Z 18011G19KT 35/12 A3003 RMK A01 T03530118  RH  024%=      5-min Rain = 0
KSM2 072103Z 19013KT 35/11 A3003 RMK A01 T03540108  RH  022%=      5-min Rain = 0
KSM2 072104Z 19015KT 36/13 A3003 RMK A01 T03550126  RH  025%=      5-min Rain = 0
KSM2 072105Z 20014KT 35/13 A3003 RMK A01 T03530133  RH  027%=      5-min Rain = 0
KSM2 072106Z 18012KT 35/13 A3003 RMK A01 T03490131  RH  027%=      5-min Rain = 0
KSM2 072107Z 18009KT 35/14 A3003 RMK A01 T03490135  RH  028%=      5-min Rain = 0
KSM2 072108Z 18010KT 35/14 A3003 RMK A01 T03520138  RH  028%=      5-min Rain = 0
KSM2 072109Z 19010KT 36/13 A3003 RMK A01 T03560134  RH  026%=      5-min Rain = 0
KSM2 072110Z 21013KT 36/12 A3003 RMK A01 T03570123  RH  024%=      5-min Rain = 0
KSM2 072111Z 19012KT 35/12 A3003 RMK A01 T03540122  RH  025%=      5-min Rain = 0
KSM2 072112Z 19013KT 35/12 A3003 RMK A01 T03530121  RH  025%=      5-min Rain = 0
KSM2 072113Z 19011KT 36/13 A3003 RMK A01 T03550128  RH  026%=      5-min Rain = 0
KSM2 072114Z 18015KT 36/13 A3003 RMK A01 T03560134  RH  026%=      5-min Rain = 0
KSM2 072115Z 18008KT 35/14 A3003 RMK A01 T03540140  RH  028%=      5-min Rain = 0
KSM2 072116Z 19009KT 35/14 A3003 RMK A01 T03530137  RH  027%=      5-min Rain = 0
KSM2 072117Z 19010KT 36/13 A3003 RMK A01 T03600129  RH  025%=      5-min Rain = 0
KSM2 072118Z 19012KT 36/13 A3003 RMK A01 T03630127  RH  024%=      5-min Rain = 0
KSM2 072119Z 21013KT 36/13 A3003 RMK A01 T03610132  RH  025%=      5-min Rain = 0
KSM2 072120Z 18011KT 36/13 A3002 RMK A01 T03590132  RH  026%=      5-min Rain = 0
KSM2 072121Z 18009KT 36/13 A3002 RMK A01 T03570132  RH  026%=      5-min Rain = 0
KSM2 072122Z 20010KT 36/14 A3002 RMK A01 T03560135  RH  027%=      5-min Rain = 0
KSM2 072123Z 19011KT 36/13 A3002 RMK A01 T03560134  RH  026%=      5-min Rain = 0
KSM2 072124Z 18011KT 36/14 A3002 RMK A01 T03580138  RH  027%=      5-min Rain = 0
KSM2 072125Z 15009KT 36/14 A3002 RMK A01 T03580138  RH  027%=      5-min Rain = 0
KSM2 072126Z 15008KT 36/14 A3002 RMK A01 T03580138  RH  027%=      5-min Rain = 0
KSM2 072127Z 15009KT 36/14 A3002 RMK A01 T03610139  RH  027%=      5-min Rain = 0
KSM2 072128Z 16009KT 36/14 A3002 RMK A01 T03620142  RH  027%=      5-min Rain = 0
KSM2 072129Z 18009KT 36/14 A3002 RMK A01 T03620140  RH  026%=      5-min Rain = 0
KSM2 072130Z 19012KT 36/13 A3002 RMK A01 T03610127  RH  025%=      5-min Rain = 0
KSM2 072131Z 17012KT 36/12 A3002 RMK A01 T03620119  RH  023%=      5-min Rain = 0
KSM2 072132Z 16012KT 36/12 A3002 RMK A01 T03610118  RH  023%=      5-min Rain = 0
KSM2 072133Z 19013G19KT 36/12 A3002 RMK A01 T03590121  RH  024%=      5-min Rain = 0
KSM2 072134Z 19011KT 36/13 A3002 RMK A01 T03590128  RH  025%=      5-min Rain = 0
KSM2 072135Z 21016KT 36/13 A3002 RMK A01 T03570128  RH  025%=      5-min Rain = 0
KSM2 072136Z 20011KT 36/13 A3002 RMK A01 T03560125  RH  025%=      5-min Rain = 0
KSM2 072137Z 20013KT 36/12 A3002 RMK A01 T03550124  RH  025%=      5-min Rain = 0
KSM2 072138Z 19011KT 35/13 A3002 RMK A01 T03540128  RH  026%=      5-min Rain = 0
KSM2 072139Z 19008KT 35/13 A3002 RMK A01 T03520132  RH  027%=      5-min Rain = 0
KSM2 072140Z 18013KT 36/13 A3002 RMK A01 T03550132  RH  026%=      5-min Rain = 0
KSM2 072141Z 18010KT 36/13 A3002 RMK A01 T03560128  RH  025%=      5-min Rain = 0
KSM2 072142Z 21012KT 36/12 A3002 RMK A01 T03550124  RH  025%=      5-min Rain = 0
KSM2 072143Z 20014KT 36/13 A3002 RMK A01 T03570126  RH  025%=      5-min Rain = 0
KSM2 072144Z 20010KT 36/13 A3002 RMK A01 T03600126  RH  025%=      5-min Rain = 0
KSM2 072145Z 20008KT 36/12 A3001 RMK A01 T03590120  RH  024%=      5-min Rain = 0
KSM2 072146Z 19009KT 36/12 A3001 RMK A01 T03590121  RH  024%=      5-min Rain = 0
KSM2 072147Z 18008KT 36/13 A3001 RMK A01 T03590132  RH  026%=      5-min Rain = 0
KSM2 072148Z 16009KT 36/13 A3001 RMK A01 T03610129  RH  025%=      5-min Rain = 0
KSM2 072149Z 16008KT 36/13 A3001 RMK A01 T03590126  RH  025%=      5-min Rain = 0
KSM2 072150Z 16005KT 36/13 A3001 RMK A01 T03560125  RH  025%=      5-min Rain = 0
KSM2 072151Z 16006KT 36/13 A3001 RMK A01 T03560130  RH  026%=      5-min Rain = 0
KSM2 072152Z 16011KT 36/13 A3001 RMK A01 T03590132  RH  026%=      5-min Rain = 0
KSM2 072153Z 19010KT 36/14 A3001 RMK A01 T03620137  RH  026%=      5-min Rain = 0
KSM2 072154Z 19013KT 37/14 A3001 RMK A01 T03660137  RH  026%=      5-min Rain = 0
KSM2 072155Z 19010KT 36/13 A3001 RMK A01 T03630132  RH  025%=      5-min Rain = 0
KSM2 072156Z 18009KT 36/13 A3001 RMK A01 T03620132  RH  025%=      5-min Rain = 0
KSM2 072157Z 19007KT 36/13 A3001 RMK A01 T03620131  RH  025%=      5-min Rain = 0
KSM2 072158Z 18007KT 36/13 A3001 RMK A01 T03610130  RH  025%=      5-min Rain = 0
KSM2 072159Z 19011KT 36/13 A3001 RMK A01 T03610133  RH  025%=      5-min Rain = 0
KSM2 072200Z 17011KT 36/13 A3001 RMK A01 T03610131  RH  025%=      5-min Rain = 0
KSM2 072201Z 18010KT 36/13 A3001 RMK A01 T03610131  RH  025%=      5-min Rain = 0
KSM2 072202Z 19009KT 36/13 A3001 RMK A01 T03600133  RH  026%=      5-min Rain = 0
KSM2 072203Z 21009KT 36/14 A3001 RMK A01 T03610137  RH  026%=      5-min Rain = 0
KSM2 072204Z 21009KT 36/13 A3001 RMK A01 T03600133  RH  026%=      5-min Rain = 0
KSM2 072205Z 21008KT 36/13 A30 RMK A01 T03570130  RH  026%=      5-min Rain = 0
KSM2 072206Z 21013KT 36/13 A30 RMK A01 T03580128  RH  025%=      5-min Rain = 0
KSM2 072207Z 21015KT 36/13 A30 RMK A01 T03630132  RH  025%=      5-min Rain = 0
KSM2 072208Z 22012KT 36/13 A30 RMK A01 T03600130  RH  025%=      5-min Rain = 0
KSM2 072209Z 20008KT 36/13 A30 RMK A01 T03570129  RH  025%=      5-min Rain = 0
KSM2 072210Z 18006KT 36/13 A30 RMK A01 T03560129  RH  026%=      5-min Rain = 0
KSM2 072211Z 17008KT 36/13 A30 RMK A01 T03560132  RH  026%=      5-min Rain = 0
KSM2 072212Z 17011KT 36/13 A30 RMK A01 T03560130  RH  026%=      5-min Rain = 0
KSM2 072213Z 17009KT 36/13 A30 RMK A01 T03560130  RH  026%=      5-min Rain = 0
KSM2 072214Z 21011KT 36/13 A30 RMK A01 T03560132  RH  026%=      5-min Rain = 0
KSM2 072215Z 22012KT 36/13 A30 RMK A01 T03570132  RH  026%=      5-min Rain = 0
KSM2 072216Z 21013KT 36/13 A30 RMK A01 T03570134  RH  026%=      5-min Rain = 0
KSM2 072217Z 20012KT 36/14 A30 RMK A01 T03570137  RH  027%=      5-min Rain = 0
KSM2 072218Z 18010KT 36/14 A30 RMK A01 T03560140  RH  027%=      5-min Rain = 0
KSM2 072219Z 18009KT 36/14 A30 RMK A01 T03570141  RH  027%=      5-min Rain = 0
KSM2 072220Z 17010KT 36/14 A30 RMK A01 T03560137  RH  027%=      5-min Rain = 0
KSM2 072221Z 22011KT 36/14 A30 RMK A01 T03550138  RH  027%=      5-min Rain = 0
KSM2 072222Z 22011KT 36/14 A30 RMK A01 T03550136  RH  027%=      5-min Rain = 0
KSM2 072223Z 19010KT 36/14 A3001 RMK A01 T03550138  RH  027%=      5-min Rain = 0
KSM2 072224Z 18010KT 36/14 A3001 RMK A01 T03550140  RH  028%=      5-min Rain = 0
KSM2 072225Z 18014KT 35/14 A3001 RMK A01 T03540140  RH  028%=      5-min Rain = 0
KSM2 072226Z 17012KT 35/14 A3001 RMK A01 T03540138  RH  027%=      5-min Rain = 0
KSM2 072227Z 17006KT 35/14 A3001 RMK A01 T03540137  RH  027%=      5-min Rain = 0
KSM2 072228Z 20012KT 35/14 A30 RMK A01 T03540138  RH  028%=      5-min Rain = 0
KSM2 072229Z 19010KT 36/14 A30 RMK A01 T03550139  RH  027%=      5-min Rain = 0
KSM2 072230Z 20011KT 36/13 A30 RMK A01 T03560133  RH  026%=      5-min Rain = 0
KSM2 072231Z 20012KT 36/13 A30 RMK A01 T03570131  RH  026%=      5-min Rain = 0
KSM2 072232Z 19009KT 36/13 A30 RMK A01 T03560130  RH  026%=      5-min Rain = 0
KSM2 072233Z 21012KT 36/13 A30 RMK A01 T03560129  RH  025%=      5-min Rain = 0
KSM2 072234Z 20010KT 36/13 A30 RMK A01 T03560127  RH  025%=      5-min Rain = 0
KSM2 072235Z 20015KT 36/12 A30 RMK A01 T03550124  RH  025%=      5-min Rain = 0
KSM2 072236Z 21015KT 35/12 A30 RMK A01 T03540116  RH  024%=      5-min Rain = 0
KSM2 072237Z 21016KT 35/11 A3001 RMK A01 T03540112  RH  023%=      5-min Rain = 0
KSM2 072238Z 21013KT 35/11 A3001 RMK A01 T03530111  RH  023%=      5-min Rain = 0
KSM2 072239Z 21011KT 35/12 A3001 RMK A01 T03530115  RH  024%=      5-min Rain = 0
KSM2 072240Z 19011KT 35/12 A3001 RMK A01 T03530119  RH  024%=      5-min Rain = 0
KSM2 072241Z 19010KT 35/12 A3001 RMK A01 T03530120  RH  025%=      5-min Rain = 0
KSM2 072242Z 21010KT 35/12 A3001 RMK A01 T03520123  RH  025%=      5-min Rain = 0
KSM2 072243Z 21010KT 35/12 A3001 RMK A01 T03520123  RH  025%=      5-min Rain = 0
KSM2 072244Z 21008KT 35/12 A3001 RMK A01 T03510124  RH  025%=      5-min Rain = 0
KSM2 072245Z 22008KT 35/13 A30 RMK A01 T03510126  RH  026%=      5-min Rain = 0
KSM2 072246Z 22008KT 35/13 A30 RMK A01 T03510127  RH  026%=      5-min Rain = 0
KSM2 072247Z 20007KT 35/13 A30 RMK A01 T03510125  RH  026%=      5-min Rain = 0
KSM2 072248Z 17009KT 35/13 A30 RMK A01 T03520128  RH  026%=      5-min Rain = 0
KSM2 072249Z 17009KT 35/13 A30 RMK A01 T03520128  RH  026%=      5-min Rain = 0
KSM2 072250Z 19008KT 35/13 A30 RMK A01 T03520129  RH  026%=      5-min Rain = 0
KSM2 072251Z 20009KT 35/13 A30 RMK A01 T03520131  RH  026%=      5-min Rain = 0
KSM2 072252Z 19009G14KT 35/13 A30 RMK A01 T03520130  RH  026%=      5-min Rain = 0
KSM2 072253Z 20010KT 35/13 A30 RMK A01 T03520130  RH  026%=      5-min Rain = 0
KSM2 072254Z 19010KT 35/13 A30 RMK A01 T03530129  RH  026%=      5-min Rain = 0
KSM2 072255Z 20012KT 35/13 A30 RMK A01 T03530130  RH  026%=      5-min Rain = 0
KSM2 072256Z 20012KT 35/13 A30 RMK A01 T03520129  RH  026%=      5-min Rain = 0
KSM2 072257Z 20010KT 35/13 A30 RMK A01 T03520129  RH  026%=      5-min Rain = 0
KSM2 072258Z 21011KT 35/13 A30 RMK A01 T03520128  RH  026%=      5-min Rain = 0
KSM2 072259Z 21010KT 35/13 A30 RMK A01 T03510128  RH  026%=      5-min Rain = 0
KSM2 072300Z 21010KT 35/13 A30 RMK A01 T03510129  RH  026%=      5-min Rain = 0
KSM2 072301Z 20009KT 35/13 A30 RMK A01 T03510130  RH  026%=      5-min Rain = 0
KSM2 072302Z 19011KT 35/13 A30 RMK A01 T03510128  RH  026%=      5-min Rain = 0
KSM2 072303Z 19011KT 35/12 A30 RMK A01 T03510123  RH  025%=      5-min Rain = 0
KSM2 072304Z 20010KT 35/12 A30 RMK A01 T03510124  RH  025%=      5-min Rain = 0
KSM2 072305Z 20009KT 35/13 A30 RMK A01 T03510128  RH  026%=      5-min Rain = 0
KSM2 072306Z 20008KT 35/13 A30 RMK A01 T03510129  RH  026%=      5-min Rain = 0
KSM2 072307Z 20008KT 35/13 A30 RMK A01 T03500130  RH  027%=      5-min Rain = 0
KSM2 072308Z 19007KT 35/13 A30 RMK A01 T03500131  RH  027%=      5-min Rain = 0
KSM2 072309Z 19008KT 35/13 A30 RMK A01 T03500133  RH  027%=      5-min Rain = 0
KSM2 072310Z 18007KT 35/13 A30 RMK A01 T03490132  RH  027%=      5-min Rain = 0
KSM2 072311Z 19007KT 35/13 A30 RMK A01 T03490132  RH  027%=      5-min Rain = 0
KSM2 072312Z 19006KT 35/13 A30 RMK A01 T03490134  RH  027%=      5-min Rain = 0
KSM2 072313Z 18007KT 35/13 A30 RMK A01 T03490134  RH  027%=      5-min Rain = 0
KSM2 072314Z 18008KT 35/14 A30 RMK A01 T03490135  RH  028%=      5-min Rain = 0
KSM2 072315Z 18008KT 35/13 A30 RMK A01 T03490134  RH  027%=      5-min Rain = 0
KSM2 072316Z 17008KT 35/13 A30 RMK A01 T03500133  RH  027%=      5-min Rain = 0
KSM2 072317Z 19010KT 35/13 A30 RMK A01 T03490132  RH  027%=      5-min Rain = 0
KSM2 072318Z 19009KT 35/13 A30 RMK A01 T03500133  RH  027%=      5-min Rain = 0
KSM2 072319Z 20009KT 35/13 A30 RMK A01 T03490132  RH  027%=      5-min Rain = 0
KSM2 072320Z 20007KT 35/13 A30 RMK A01 T03490132  RH  027%=      5-min Rain = 0
KSM2 072321Z 19008KT 35/13 A30 RMK A01 T03490131  RH  027%=      5-min Rain = 0
KSM2 072322Z 19011KT 35/13 A30 RMK A01 T03480130  RH  027%=      5-min Rain = 0
KSM2 072323Z 18010KT 35/13 A30 RMK A01 T03480130  RH  027%=      5-min Rain = 0
KSM2 072324Z 18010KT 35/13 A30 RMK A01 T03490131  RH  027%=      5-min Rain = 0
KSM2 072325Z 19008KT 35/13 A30 RMK A01 T03480132  RH  027%=      5-min Rain = 0
KSM2 072326Z 20008KT 35/13 A30 RMK A01 T03490132  RH  027%=      5-min Rain = 0
KSM2 072327Z 19008KT 35/13 A30 RMK A01 T03480132  RH  027%=      5-min Rain = 0
KSM2 072328Z 19008KT 35/13 A30 RMK A01 T03480131  RH  027%=      5-min Rain = 0
KSM2 072329Z 19008KT 35/13 A30 RMK A01 T03480129  RH  027%=      5-min Rain = 0
KSM2 072330Z 19007KT 35/13 A30 RMK A01 T03480130  RH  027%=      5-min Rain = 0
KSM2 072331Z 19008KT 35/13 A30 RMK A01 T03470130  RH  027%=      5-min Rain = 0
KSM2 072332Z 18010KT 35/13 A30 RMK A01 T03470128  RH  027%=      5-min Rain = 0
KSM2 072333Z 16008KT 35/13 A30 RMK A01 T03480129  RH  027%=      5-min Rain = 0
KSM2 072334Z 17008KT 35/13 A30 RMK A01 T03470129  RH  027%=      5-min Rain = 0
KSM2 072335Z 16010KT 35/13 A30 RMK A01 T03470129  RH  027%=      5-min Rain = 0
KSM2 072336Z 17011KT 35/13 A30 RMK A01 T03460129  RH  027%=      5-min Rain = 0
KSM2 072337Z 17009KT 35/13 A30 RMK A01 T03460129  RH  027%=      5-min Rain = 0
KSM2 072338Z 17009KT 35/13 A30 RMK A01 T03450129  RH  027%=      5-min Rain = 0
KSM2 072339Z 18009KT 35/13 A30 RMK A01 T03450128  RH  027%=      5-min Rain = 0
KSM2 072340Z 19009KT 35/13 A30 RMK A01 T03460128  RH  027%=      5-min Rain = 0
KSM2 072341Z 18009KT 35/13 A30 RMK A01 T03460126  RH  027%=      5-min Rain = 0
KSM2 072342Z 18008KT 35/13 A30 RMK A01 T03460126  RH  026%=      5-min Rain = 0
KSM2 072343Z 17007KT 35/13 A30 RMK A01 T03470127  RH  027%=      5-min Rain = 0
KSM2 072344Z 17006KT 35/13 A30 RMK A01 T03460130  RH  027%=      5-min Rain = 0
KSM2 072345Z 18006KT 35/13 A30 RMK A01 T03450128  RH  027%=      5-min Rain = 0
KSM2 072346Z 17006KT 35/13 A30 RMK A01 T03450128  RH  027%=      5-min Rain = 0
KSM2 072347Z 17008KT 35/13 A30 RMK A01 T03450128  RH  027%=      5-min Rain = 0
KSM2 072348Z 18009KT 35/13 A30 RMK A01 T03450127  RH  027%=      5-min Rain = 0
KSM2 072349Z 18007KT 35/13 A30 RMK A01 T03460127  RH  027%=      5-min Rain = 0
KSM2 072350Z 19009KT 35/13 A30 RMK A01 T03460127  RH  027%=      5-min Rain = 0
KSM2 072351Z 20008KT 35/13 A30 RMK A01 T03460125  RH  026%=      5-min Rain = 0
KSM2 072352Z 20008KT 35/13 A30 RMK A01 T03460125  RH  026%=      5-min Rain = 0
KSM2 072353Z 19008KT 35/12 A30 RMK A01 T03460123  RH  026%=      5-min Rain = 0
KSM2 072354Z 18007KT 35/12 A30 RMK A01 T03460124  RH  026%=      5-min Rain = 0
KSM2 072355Z 20008KT 35/12 A30 RMK A01 T03460124  RH  026%=      5-min Rain = 0
KSM2 072356Z 19010KT 35/12 A30 RMK A01 T03460124  RH  026%=      5-min Rain = 0
KSM2 072357Z 19012KT 35/13 A3001 RMK A01 T03460125  RH  026%=      5-min Rain = 0
KSM2 072358Z 17012KT 35/13 A3001 RMK A01 T03460126  RH  027%=      5-min Rain = 0
KSM2 072359Z 18008KT 35/13 A3001 RMK A01 T03460128  RH  027%=      5-min Rain = 0
KSM2 080000Z 16010KT 35/13 A3001 RMK A01 T03450128  RH  027%=      5-min Rain = 0
KSM2 080001Z 16012G17KT 35/13 A3001 RMK A01 T03450128  RH  027%=      5-min Rain = 0
KSM2 080002Z 18016KT 34/13 A3001 RMK A01 T03440127  RH  027%=      5-min Rain = 0
KSM2 080003Z 17012KT 34/13 A3001 RMK A01 T03430127  RH  027%=      5-min Rain = 0
KSM2 080004Z 18012KT 34/13 A3001 RMK A01 T03430128  RH  027%=      5-min Rain = 0
KSM2 080005Z 18013KT 34/13 A3001 RMK A01 T03420128  RH  027%=      5-min Rain = 0
KSM2 080006Z 18011KT 34/13 A3001 RMK A01 T03410127  RH  027%=      5-min Rain = 0
KSM2 080007Z 17010KT 34/13 A3001 RMK A01 T03420127  RH  027%=      5-min Rain = 0
KSM2 080008Z 18014KT 34/13 A3001 RMK A01 T03420128  RH  027%=      5-min Rain = 0
KSM2 080009Z 18015KT 34/13 A3001 RMK A01 T03410128  RH  028%=      5-min Rain = 0
KSM2 080010Z 18011G16KT 34/13 A3001 RMK A01 T03400127  RH  027%=      5-min Rain = 0
KSM2 080011Z 18011KT 34/13 A3001 RMK A01 T03400127  RH  028%=      5-min Rain = 0
KSM2 080012Z 18013KT 34/13 A3001 RMK A01 T03400127  RH  028%=      5-min Rain = 0
KSM2 080013Z 18011KT 34/13 A3001 RMK A01 T03390129  RH  028%=      5-min Rain = 0
KSM2 080014Z 18014KT 34/13 A3001 RMK A01 T03390127  RH  028%=      5-min Rain = 0
KSM2 080015Z 18011KT 34/13 A3001 RMK A01 T03390127  RH  028%=      5-min Rain = 0
KSM2 080016Z 17009KT 34/13 A3001 RMK A01 T03390128  RH  028%=      5-min Rain = 0
KSM2 080017Z 17008KT 34/13 A3002 RMK A01 T03390129  RH  028%=      5-min Rain = 0
KSM2 080018Z 17009KT 34/13 A3002 RMK A01 T03380128  RH  028%=      5-min Rain = 0
KSM2 080019Z 17009KT 34/13 A3002 RMK A01 T03380128  RH  028%=      5-min Rain = 0
KSM2 080020Z 17010KT 34/13 A3002 RMK A01 T03380128  RH  028%=      5-min Rain = 0
KSM2 080021Z 17007G12KT 34/13 A3002 RMK A01 T03380128  RH  028%=      5-min Rain = 0
KSM2 080022Z 17009KT 34/13 A3002 RMK A01 T03370128  RH  028%=      5-min Rain = 0
KSM2 080023Z 16009KT 34/13 A3002 RMK A01 T03370128  RH  028%=      5-min Rain = 0
KSM2 080024Z 17007KT 34/13 A3002 RMK A01 T03360127  RH  028%=      5-min Rain = 0
KSM2 080025Z 16006KT 34/13 A3002 RMK A01 T03360129  RH  029%=      5-min Rain = 0
KSM2 080026Z 16009KT 34/13 A3002 RMK A01 T03350128  RH  029%=      5-min Rain = 0
KSM2 080027Z 16008KT 34/13 A3002 RMK A01 T03350126  RH  028%=      5-min Rain = 0
KSM2 080028Z 16007KT 34/13 A3002 RMK A01 T03350127  RH  028%=      5-min Rain = 0
KSM2 080029Z 17005KT 34/13 A3002 RMK A01 T03350129  RH  029%=      5-min Rain = 0
KSM2 080030Z 17005KT 33/13 A3002 RMK A01 T03340127  RH  028%=      5-min Rain = 0
KSM2 080031Z 18005KT 34/13 A3002 RMK A01 T03350127  RH  028%=      5-min Rain = 0
KSM2 080032Z 18005KT 34/13 A3002 RMK A01 T03350127  RH  028%=      5-min Rain = 0
KSM2 080033Z 22004KT 34/13 A3003 RMK A01 T03350129  RH  029%=      5-min Rain = 0
KSM2 080034Z 24004KT 34/13 A3003 RMK A01 T03350126  RH  028%=      5-min Rain = 0
KSM2 080035Z 27005KT 34/13 A3003 RMK A01 T03350129  RH  029%=      5-min Rain = 0
KSM2 080036Z 30006KT 33/14 A3003 RMK A01 T03320138  RH  031%=      5-min Rain = 0
KSM2 080037Z 31005KT 33/14 A3003 RMK A01 T03260138  RH  032%=      5-min Rain = 0
KSM2 080038Z 31006KT 32/14 A3003 RMK A01 T03230138  RH  033%=      5-min Rain = 0
KSM2 080039Z 31006KT 32/14 A3003 RMK A01 T03210140  RH  033%=      5-min Rain = 0
KSM2 080040Z 32006KT 32/14 A3003 RMK A01 T03190139  RH  034%=      5-min Rain = 0
KSM2 080041Z 32006KT 32/14 A3003 RMK A01 T03190139  RH  034%=      5-min Rain = 0
KSM2 080042Z 32006KT 32/14 A3003 RMK A01 T03190141  RH  034%=      5-min Rain = 0
KSM2 080043Z 31008KT 32/14 A3003 RMK A01 T03180141  RH  034%=      5-min Rain = 0
KSM2 080044Z 31008KT 32/14 A3003 RMK A01 T03160142  RH  035%=      5-min Rain = 0
KSM2 080045Z 31010KT 31/14 A3003 RMK A01 T03140143  RH  035%=      5-min Rain = 0
KSM2 080046Z 30011KT 31/14 A3003 RMK A01 T03120144  RH  036%=      5-min Rain = 0
KSM2 080047Z 31010KT 31/15 A3003 RMK A01 T03110145  RH  036%=      5-min Rain = 0
KSM2 080048Z 30010KT 31/15 A3003 RMK A01 T03100146  RH  037%=      5-min Rain = 0
KSM2 080049Z 30008KT 31/15 A3003 RMK A01 T03080148  RH  038%=      5-min Rain = 0
KSM2 080050Z 31008KT 31/15 A3003 RMK A01 T03070147  RH  038%=      5-min Rain = 0
KSM2 080051Z 31007KT 31/15 A3003 RMK A01 T03070148  RH  038%=      5-min Rain = 0
KSM2 080052Z 33006KT 31/15 A3003 RMK A01 T03060148  RH  038%=      5-min Rain = 0
KSM2 080053Z 33005KT 31/15 A3003 RMK A01 T03060149  RH  039%=      5-min Rain = 0
KSM2 080054Z 33003KT 31/15 A3003 RMK A01 T03050149  RH  039%=      5-min Rain = 0
KSM2 080055Z 05000KT 30/15 A3003 RMK A01 T03040150  RH  039%=      5-min Rain = 0
KSM2 080056Z 00000KT 30/15 A3003 RMK A01 T03040150  RH  039%=      5-min Rain = 0
KSM2 080057Z 28001KT 30/15 A3003 RMK A01 T03030150  RH  039%=      5-min Rain = 0
KSM2 080058Z 32003KT 30/15 A3003 RMK A01 T03030150  RH  039%=      5-min Rain = 0
KSM2 080059Z 34005KT 30/15 A3003 RMK A01 T03030150  RH  039%=      5-min Rain = 0
KSM2 080100Z 33005KT 30/15 A3003 RMK A01 T03030149  RH  039%=      5-min Rain = 0
KSM2 080101Z 27002KT 30/15 A3003 RMK A01 T03040149  RH  039%=      5-min Rain = 0
KSM2 080102Z 30003KT 31/15 A3003 RMK A01 T03050147  RH  038%=      5-min Rain = 0
KSM2 080103Z 30007KT 31/14 A3003 RMK A01 T03070142  RH  037%=      5-min Rain = 0
KSM2 080104Z 29006KT 31/14 A3003 RMK A01 T03100142  RH  036%=      5-min Rain = 0
KSM2 080105Z 29004KT 31/14 A3003 RMK A01 T03140136  RH  034%=      5-min Rain = 0
KSM2 080106Z 29003KT 32/13 A3003 RMK A01 T03180134  RH  033%=      5-min Rain = 0
KSM2 080107Z 21002KT 32/14 A3004 RMK A01 T03200138  RH  033%=      5-min Rain = 0
KSM2 080108Z 12003KT 32/14 A3004 RMK A01 T03210138  RH  033%=      5-min Rain = 0
KSM2 080109Z 20004KT 32/14 A3004 RMK A01 T03200140  RH  034%=      5-min Rain = 0
KSM2 080110Z 22004KT 32/13 A3004 RMK A01 T03200130  RH  031%=      5-min Rain = 0
KSM2 080111Z 14003KT 32/13 A3004 RMK A01 T03230130  RH  031%=      5-min Rain = 0
KSM2 080112Z 19007G12KT 32/13 A3004 RMK A01 T03240132  RH  031%=      5-min Rain = 0
KSM2 080113Z 15006KT 33/13 A3004 RMK A01 T03250126  RH  030%=      5-min Rain = 0
KSM2 080114Z 16005KT 33/12 A3004 RMK A01 T03270124  RH  029%=      5-min Rain = 0
KSM2 080115Z 16005KT 33/13 A3004 RMK A01 T03280127  RH  029%=      5-min Rain = 0
KSM2 080116Z 16008KT 33/13 A3004 RMK A01 T03280128  RH  030%=      5-min Rain = 0
KSM2 080117Z 21007KT 33/13 A3004 RMK A01 T03280129  RH  030%=      5-min Rain = 0
KSM2 080118Z 22005KT 33/12 A3004 RMK A01 T03290123  RH  029%=      5-min Rain = 0
KSM2 080119Z 19006KT 33/13 A3004 RMK A01 T03300127  RH  029%=      5-min Rain = 0
KSM2 080120Z 16008KT 33/13 A3004 RMK A01 T03290133  RH  030%=      5-min Rain = 0
KSM2 080121Z 15010KT 33/13 A3004 RMK A01 T03270127  RH  030%=      5-min Rain = 0
KSM2 080122Z 16006KT 33/12 A3004 RMK A01 T03280124  RH  029%=      5-min Rain = 0
KSM2 080123Z 14008KT 33/12 A3004 RMK A01 T03290124  RH  029%=      5-min Rain = 0
KSM2 080124Z 15008KT 33/12 A3004 RMK A01 T03290124  RH  029%=      5-min Rain = 0
KSM2 080125Z 18007KT 33/13 A3003 RMK A01 T03290126  RH  029%=      5-min Rain = 0
KSM2 080126Z 17008KT 33/13 A3003 RMK A01 T03290126  RH  029%=      5-min Rain = 0
KSM2 080127Z 16009KT 33/12 A3003 RMK A01 T03290123  RH  029%=      5-min Rain = 0
KSM2 080128Z 15010KT 33/12 A3003 RMK A01 T03290124  RH  029%=      5-min Rain = 0
KSM2 080129Z 17008KT 33/13 A3003 RMK A01 T03290126  RH  029%=      5-min Rain = 0
KSM2 080130Z 19008KT 33/13 A3003 RMK A01 T03290127  RH  029%=      5-min Rain = 0
KSM2 080131Z 21007KT 33/12 A3003 RMK A01 T03280124  RH  029%=      5-min Rain = 0
KSM2 080132Z 22008KT 33/12 A3003 RMK A01 T03290124  RH  029%=      5-min Rain = 0
KSM2 080133Z 19006KT 33/13 A3003 RMK A01 T03290126  RH  029%=      5-min Rain = 0
KSM2 080134Z 15007KT 33/13 A3003 RMK A01 T03280126  RH  029%=      5-min Rain = 0
KSM2 080135Z 16007KT 33/13 A3003 RMK A01 T03280125  RH  029%=      5-min Rain = 0
KSM2 080136Z 18007KT 33/13 A3003 RMK A01 T03280126  RH  029%=      5-min Rain = 0
KSM2 080137Z 16006KT 33/13 A3003 RMK A01 T03280128  RH  030%=      5-min Rain = 0
KSM2 080138Z 14007KT 33/13 A3003 RMK A01 T03270127  RH  030%=      5-min Rain = 0
KSM2 080139Z 15005KT 33/13 A3003 RMK A01 T03270127  RH  030%=      5-min Rain = 0
KSM2 080140Z 15006KT 33/13 A3003 RMK A01 T03260127  RH  030%=      5-min Rain = 0
KSM2 080141Z 16006KT 33/13 A3003 RMK A01 T03260129  RH  030%=      5-min Rain = 0
KSM2 080142Z 17005KT 33/13 A3003 RMK A01 T03250130  RH  031%=      5-min Rain = 0
KSM2 080143Z 17005KT 32/13 A3003 RMK A01 T03240129  RH  031%=      5-min Rain = 0
KSM2 080144Z 17006KT 32/13 A3004 RMK A01 T03240130  RH  031%=      5-min Rain = 0
KSM2 080145Z 18006KT 32/13 A3004 RMK A01 T03240131  RH  031%=      5-min Rain = 0
KSM2 080146Z 17006KT 32/13 A3004 RMK A01 T03230131  RH  031%=      5-min Rain = 0
KSM2 080147Z 18005KT 32/13 A3004 RMK A01 T03220130  RH  031%=      5-min Rain = 0
KSM2 080148Z 17003KT 32/13 A3004 RMK A01 T03220133  RH  032%=      5-min Rain = 0
KSM2 080149Z 18003KT 32/13 A3004 RMK A01 T03210132  RH  032%=      5-min Rain = 0
KSM2 080150Z 17003KT 32/13 A3004 RMK A01 T03200134  RH  032%=      5-min Rain = 0
KSM2 080151Z 17003KT 32/13 A3004 RMK A01 T03180132  RH  032%=      5-min Rain = 0
KSM2 080152Z 17003KT 32/13 A3004 RMK A01 T03190131  RH  032%=      5-min Rain = 0
KSM2 080153Z 17004KT 32/13 A3004 RMK A01 T03190133  RH  032%=      5-min Rain = 0
KSM2 080154Z 18003KT 32/13 A3004 RMK A01 T03190133  RH  032%=      5-min Rain = 0
KSM2 080155Z 18004KT 32/13 A3004 RMK A01 T03180133  RH  032%=      5-min Rain = 0
KSM2 080156Z 18003KT 32/13 A3004 RMK A01 T03180132  RH  032%=      5-min Rain = 0
KSM2 080157Z 17003KT 32/13 A3004 RMK A01 T03180132  RH  032%=      5-min Rain = 0
KSM2 080158Z 16004KT 32/13 A3004 RMK A01 T03180131  RH  032%=      5-min Rain = 0
KSM2 080159Z 17004KT 32/13 A3004 RMK A01 T03180133  RH  032%=      5-min Rain = 0
KSM2 080200Z 17004KT 32/13 A3004 RMK A01 T03180131  RH  032%=      5-min Rain = 0
KSM2 080201Z 17004KT 32/13 A3004 RMK A01 T03180130  RH  032%=      5-min Rain = 0
KSM2 080202Z 18005KT 32/13 A3004 RMK A01 T03190130  RH  032%=      5-min Rain = 0
KSM2 080203Z 17005KT 32/13 A3004 RMK A01 T03190130  RH  031%=      5-min Rain = 0
KSM2 080204Z 18004KT 32/13 A3004 RMK A01 T03200133  RH  032%=      5-min Rain = 0
KSM2 080205Z 17003KT 32/13 A3004 RMK A01 T03190133  RH  032%=      5-min Rain = 0
KSM2 080206Z 17005KT 32/13 A3005 RMK A01 T03180133  RH  033%=      5-min Rain = 0
KSM2 080207Z 18006KT 32/13 A3005 RMK A01 T03170132  RH  032%=      5-min Rain = 0
KSM2 080208Z 18005KT 32/13 A3005 RMK A01 T03170132  RH  032%=      5-min Rain = 0
KSM2 080209Z 19006KT 32/13 A3005 RMK A01 T03180132  RH  032%=      5-min Rain = 0
KSM2 080210Z 20005KT 32/13 A3005 RMK A01 T03180133  RH  032%=      5-min Rain = 0
KSM2 080211Z 21006KT 32/13 A3005 RMK A01 T03170133  RH  033%=      5-min Rain = 0
KSM2 080212Z 21006KT 32/13 A3005 RMK A01 T03160131  RH  032%=      5-min Rain = 0
KSM2 080213Z 22005KT 32/13 A3006 RMK A01 T03160131  RH  032%=      5-min Rain = 0
KSM2 080214Z 24006KT 32/13 A3006 RMK A01 T03170130  RH  032%=      5-min Rain = 0
KSM2 080215Z 26007KT 32/13 A3006 RMK A01 T03180129  RH  032%=      5-min Rain = 0
KSM2 080216Z 28009KT 32/13 A3007 RMK A01 T03180129  RH  032%=      5-min Rain = 0
KSM2 080217Z 31018G24KT 32/14 A3008 RMK A01 T03170136  RH  033%=      5-min Rain = 0
KSM2 080218Z 31021KT 30/15 A3008 RMK A01 T02970148  RH  040%=      5-min Rain = 0
KSM2 080219Z 31021KT 27/15 A3008 RMK A01 T02730149  RH  047%=      5-min Rain = 0
KSM2 080220Z 31016KT 26/15 A3008 RMK A01 T02620151  RH  050%=      5-min Rain = 0
KSM2 080221Z 31019G24KT 26/15 A3008 RMK A01 T02590151  RH  052%=      5-min Rain = 0
KSM2 080222Z 30021KT 26/15 A3008 RMK A01 T02550151  RH  053%=      5-min Rain = 0
KSM2 080223Z 31023G29KT 25/15 A3008 RMK A01 T02510152  RH  054%=      5-min Rain = 0
KSM2 080224Z 31025KT 25/15 A3008 RMK A01 T02480153  RH  056%=      5-min Rain = 0
KSM2 080225Z 31024KT 24/16 A3008 RMK A01 T02440156  RH  058%=      5-min Rain = 0
KSM2 080226Z 31023KT 24/16 A3008 RMK A01 T02410158  RH  060%=      5-min Rain = 0
KSM2 080227Z 32025KT 24/16 A3008 RMK A01 T02390161  RH  061%=      5-min Rain = 0
KSM2 080228Z 32028KT 24/16 A3009 RMK A01 T02380161  RH  062%=      5-min Rain = 0
KSM2 080229Z 31022G27KT 24/17 A3009 RMK A01 T02360165  RH  064%=      5-min Rain = 0
KSM2 080230Z 30025KT 23/16 A301 RMK A01 T02330164  RH  065%=      5-min Rain = 0
KSM2 080231Z 30024G29KT 23/16 A3011 RMK A01 T02330159  RH  063%=      5-min Rain = 0
KSM2 080232Z 30027G32KT 23/16 A3011 RMK A01 T02330157  RH  063%=      5-min Rain = 0
KSM2 080233Z 30029G36KT 23/15 A3011 RMK A01 T02320152  RH  061%=      5-min Rain = 0
KSM2 080234Z 30032G37KT 23/15 A3011 RMK A01 T02320150  RH  060%=      5-min Rain = 0
KSM2 080235Z 31034KT 23/15 A3011 RMK A01 T02330147  RH  058%=      5-min Rain = 0
KSM2 080236Z 30033KT 24/14 A3011 RMK A01 T02360144  RH  056%=      5-min Rain = 0
KSM2 080237Z 31030G38KT 24/15 A3011 RMK A01 T02360148  RH  057%=      5-min Rain = 0
KSM2 080238Z 31028G34KT 24/15 A3011 RMK A01 T02350148  RH  058%=      5-min Rain = 0
KSM2 080239Z 31029KT 23/15 A3011 RMK A01 T02340148  RH  058%=      5-min Rain = 0
KSM2 080240Z 31026G31KT 23/15 A3011 RMK A01 T02340150  RH  059%=      5-min Rain = 0
KSM2 080241Z 30027G33KT 23/15 A3011 RMK A01 T02330151  RH  060%=      5-min Rain = 0
KSM2 080242Z 30031G36KT 23/15 A3011 RMK A01 T02330151  RH  060%=      5-min Rain = 0
KSM2 080243Z 30029KT 23/15 A3012 RMK A01 T02340150  RH  059%=      5-min Rain = 0
KSM2 080244Z 30028G33KT 24/15 A3012 RMK A01 T02360148  RH  058%=      5-min Rain = 0
KSM2 080245Z 30024KT 24/15 A3013 RMK A01 T02380150  RH  058%=      5-min Rain = 0
KSM2 080246Z 31019G25KT 24/15 A3013 RMK A01 T02390152  RH  058%=      5-min Rain = 0
KSM2 080247Z 31013G18KT 24/15 A3013 RMK A01 T02400151  RH  058%=      5-min Rain = 0
KSM2 080248Z 29012KT 24/15 A3013 RMK A01 T02390154  RH  059%=      5-min Rain = 0
KSM2 080249Z 29012KT 24/16 A3013 RMK A01 T02360158  RH  061%=      5-min Rain = 0
KSM2 080250Z 28012KT 23/16 A3013 RMK A01 T02330161  RH  064%=      5-min Rain = 0
KSM2 080251Z 29011KT 23/17 A3013 RMK A01 T02300166  RH  067%=      5-min Rain = 0.01
KSM2 080252Z 31014G21KT 23/17 A3013 RMK A01 T02280168  RH  069%=      5-min Rain = 0
KSM2 080253Z 31020G25KT 23/17 A3012 RMK A01 T02270167  RH  069%=      5-min Rain = 0.01
KSM2 080254Z 32021G27KT 23/17 A3012 RMK A01 T02270169  RH  070%=      5-min Rain = 0
KSM2 080255Z 32026KT 23/17 A3012 RMK A01 T02260168  RH  070%=      5-min Rain = 0.01
KSM2 080256Z 32029G36KT 22/17 A3012 RMK A01 T02230168  RH  071%=      5-min Rain = 0.01
KSM2 080257Z 32031KT 22/17 A3012 RMK A01 T02210166  RH  071%=      5-min Rain = 0.01
KSM2 080258Z 32027G32KT 22/17 A3012 RMK A01 T02220167  RH  071%=      5-min Rain = 0
KSM2 080259Z 32023KT 22/17 A3013 RMK A01 T02230169  RH  071%=      5-min Rain = 0
KSM2 080300Z 32022G27KT 22/17 A3013 RMK A01 T02240169  RH  071%=      5-min Rain = 0
KSM2 080301Z 33020KT 22/17 A3013 RMK A01 T02230171  RH  072%=      5-min Rain = 0
KSM2 080302Z 32021KT 22/17 A3013 RMK A01 T02230168  RH  071%=      5-min Rain = 0
KSM2 080303Z 32018KT 22/17 A3014 RMK A01 T02230169  RH  072%=      5-min Rain = 0
KSM2 080304Z 31016KT 22/17 A3014 RMK A01 T02220173  RH  074%=      5-min Rain = 0
KSM2 080305Z 31018KT 22/17 A3014 RMK A01 T02210172  RH  074%=      5-min Rain = 0
KSM2 080306Z 32018G23KT 22/17 A3014 RMK A01 T02200170  RH  073%=      5-min Rain = 0
KSM2 080307Z 32022KT 22/17 A3014 RMK A01 T02200170  RH  073%=      5-min Rain = 0
KSM2 080308Z 32020KT 22/17 A3013 RMK A01 T02200171  RH  074%=      5-min Rain = 0
KSM2 080309Z 32022KT 22/17 A3013 RMK A01 T02190171  RH  074%=      5-min Rain = 0
KSM2 080310Z 32023KT 22/17 A3013 RMK A01 T02190168  RH  073%=      5-min Rain = 0
KSM2 080311Z 32019KT 22/17 A3014 RMK A01 T02190171  RH  074%=      5-min Rain = 0
KSM2 080312Z 32018KT 22/17 A3014 RMK A01 T02180171  RH  075%=      5-min Rain = 0
KSM2 080313Z 33017KT 22/17 A3014 RMK A01 T02170172  RH  075%=      5-min Rain = 0
KSM2 080314Z 33019KT 22/17 A3013 RMK A01 T02170173  RH  076%=      5-min Rain = 0.01
KSM2 080315Z 33020KT 22/17 A3013 RMK A01 T02160171  RH  075%=      5-min Rain = 0
KSM2 080316Z 33020KT 22/17 A3013 RMK A01 T02160171  RH  075%=      5-min Rain = 0
KSM2 080317Z 33020KT 22/17 A3013 RMK A01 T02160172  RH  076%=      5-min Rain = 0
KSM2 080318Z 33019KT 22/17 A3013 RMK A01 T02160172  RH  076%=      5-min Rain = 0
KSM2 080319Z 32016KT 22/17 A3013 RMK A01 T02160173  RH  077%=      5-min Rain = 0
KSM2 080320Z 33018KT 22/17 A3013 RMK A01 T02150173  RH  077%=      5-min Rain = 0
KSM2 080321Z 32017KT 22/17 A3013 RMK A01 T02150173  RH  077%=      5-min Rain = 0
KSM2 080322Z 32016KT 22/18 A3013 RMK A01 T02150175  RH  078%=      5-min Rain = 0
KSM2 080323Z 32019KT 21/17 A3013 RMK A01 T02140174  RH  078%=      5-min Rain = 0
KSM2 080324Z 32017KT 21/18 A3013 RMK A01 T02140176  RH  079%=      5-min Rain = 0
KSM2 080325Z 32019KT 21/18 A3013 RMK A01 T02130176  RH  079%=      5-min Rain = 0
KSM2 080326Z 32016KT 21/18 A3014 RMK A01 T02130175  RH  079%=      5-min Rain = 0
KSM2 080327Z 32015KT 21/18 A3014 RMK A01 T02120176  RH  080%=      5-min Rain = 0
KSM2 080328Z 32014KT 21/18 A3014 RMK A01 T02110178  RH  081%=      5-min Rain = 0.01
KSM2 080329Z 31016KT 21/18 A3014 RMK A01 T02100179  RH  082%=      5-min Rain = 0
KSM2 080330Z 31016KT 21/18 A3014 RMK A01 T02100178  RH  082%=      5-min Rain = 0
KSM2 080331Z 31015KT 21/18 A3014 RMK A01 T02090179  RH  083%=      5-min Rain = 0
KSM2 080332Z 30015KT 21/18 A3015 RMK A01 T02090180  RH  084%=      5-min Rain = 0
KSM2 080333Z 30014KT 21/18 A3015 RMK A01 T02090180  RH  083%=      5-min Rain = 0
KSM2 080334Z 29013KT 21/18 A3015 RMK A01 T02090180  RH  083%=      5-min Rain = 0
KSM2 080335Z 29014KT 21/18 A3015 RMK A01 T02120177  RH  080%=      5-min Rain = 0.01
KSM2 080336Z 30015KT 21/18 A3015 RMK A01 T02140179  RH  080%=      5-min Rain = 0
KSM2 080337Z 30018KT 21/18 A3015 RMK A01 T02140176  RH  079%=      5-min Rain = 0
KSM2 080338Z 30017KT 22/18 A3016 RMK A01 T02150176  RH  078%=      5-min Rain = 0
KSM2 080339Z 30017KT 22/17 A3016 RMK A01 T02170173  RH  076%=      5-min Rain = 0.01
KSM2 080340Z 30015KT 22/17 A3016 RMK A01 T02190172  RH  075%=      5-min Rain = 0
KSM2 080341Z 31013KT 22/17 A3016 RMK A01 T02210169  RH  072%=      5-min Rain = 0
KSM2 080342Z 31015G20KT 22/17 A3016 RMK A01 T02220172  RH  073%=      5-min Rain = 0
KSM2 080343Z 31017G22KT 22/17 A3016 RMK A01 T02220173  RH  074%=      5-min Rain = 0
KSM2 080344Z 31018KT 22/17 A3016 RMK A01 T02210174  RH  075%=      5-min Rain = 0.01
KSM2 080345Z 32018KT 22/17 A3016 RMK A01 T02180173  RH  075%=      5-min Rain = 0.02
KSM2 080346Z 31021KT 22/17 A3015 RMK A01 T02160174  RH  077%=      5-min Rain = 0.01
KSM2 080347Z 31021KT 21/17 A3016 RMK A01 T02140173  RH  077%=      5-min Rain = 0.01
KSM2 080348Z 31019KT 21/17 A3016 RMK A01 T02140173  RH  077%=      5-min Rain = 0
KSM2 080349Z 30021KT 22/17 A3016 RMK A01 T02150173  RH  077%=      5-min Rain = 0
KSM2 080350Z 30018KT 22/17 A3016 RMK A01 T02170174  RH  076%=      5-min Rain = 0
KSM2 080351Z 30017KT 22/18 A3016 RMK A01 T02170178  RH  078%=      5-min Rain = 0
KSM2 080352Z 30016KT 22/18 A3017 RMK A01 T02150177  RH  079%=      5-min Rain = 0
KSM2 080353Z 29016KT 21/18 A3017 RMK A01 T02140179  RH  080%=      5-min Rain = 0
KSM2 080354Z 29016KT 21/18 A3017 RMK A01 T02140179  RH  081%=      5-min Rain = 0
KSM2 080355Z 29015G20KT 21/18 A3017 RMK A01 T02130179  RH  081%=      5-min Rain = 0
KSM2 080356Z 29016KT 21/18 A3017 RMK A01 T02140179  RH  081%=      5-min Rain = 0
KSM2 080357Z 28014KT 21/18 A3017 RMK A01 T02140179  RH  080%=      5-min Rain = 0
KSM2 080358Z 28015KT 22/18 A3017 RMK A01 T02150179  RH  080%=      5-min Rain = 0
KSM2 080359Z 28018G23KT 22/18 A3017 RMK A01 T02160178  RH  079%=      5-min Rain = 0
KSM2 080400Z 29016KT 22/18 A3017 RMK A01 T02160178  RH  079%=      5-min Rain = 0.01
KSM2 080401Z 29017KT 22/18 A3017 RMK A01 T02160180  RH  080%=      5-min Rain = 0
KSM2 080402Z 29018KT 22/18 A3017 RMK A01 T02150179  RH  080%=      5-min Rain = 0.01
KSM2 080403Z 29018KT 22/18 A3017 RMK A01 T02150179  RH  080%=      5-min Rain = 0
KSM2 080404Z 29017KT 22/18 A3017 RMK A01 T02150180  RH  081%=      5-min Rain = 0.01
KSM2 080405Z 29016KT 22/18 A3017 RMK A01 T02150180  RH  080%=      5-min Rain = 0
KSM2 080406Z 29016KT 22/18 A3017 RMK A01 T02150180  RH  081%=      5-min Rain = 0
KSM2 080407Z 29018KT 22/18 A3017 RMK A01 T02150180  RH  081%=      5-min Rain = 0
KSM2 080408Z 29020G25KT 22/18 A3017 RMK A01 T02150179  RH  080%=      5-min Rain = 0
KSM2 080409Z 28019KT 22/18 A3017 RMK A01 T02170176  RH  077%=      5-min Rain = 0
KSM2 080410Z 28017KT 22/18 A3017 RMK A01 T02190178  RH  077%=      5-min Rain = 0
KSM2 080411Z 28020KT 22/18 A3017 RMK A01 T02190177  RH  077%=      5-min Rain = 0
KSM2 080412Z 28019KT 22/18 A3017 RMK A01 T02190176  RH  077%=      5-min Rain = 0
KSM2 080413Z 28018KT 22/18 A3017 RMK A01 T02190176  RH  076%=      5-min Rain = 0
KSM2 080414Z 28019KT 22/18 A3017 RMK A01 T02180176  RH  077%=      5-min Rain = 0
KSM2 080415Z 28020G25KT 22/18 A3017 RMK A01 T02180176  RH  077%=      5-min Rain = 0
KSM2 080416Z 29019G24KT 22/18 A3017 RMK A01 T02170176  RH  078%=      5-min Rain = 0
KSM2 080417Z 28019KT 22/18 A3018 RMK A01 T02160176  RH  078%=      5-min Rain = 0
KSM2 080418Z 28017KT 22/18 A3018 RMK A01 T02150175  RH  078%=      5-min Rain = 0
KSM2 080419Z 27018KT 22/18 A3018 RMK A01 T02150176  RH  079%=      5-min Rain = 0.01
KSM2 080420Z 28018KT 21/18 A3018 RMK A01 T02140177  RH  080%=      5-min Rain = 0
KSM2 080421Z 28018KT 21/18 A3018 RMK A01 T02130178  RH  080%=      5-min Rain = 0
KSM2 080422Z 28019KT 21/18 A3018 RMK A01 T02130178  RH  080%=      5-min Rain = 0
KSM2 080423Z 27019KT 21/18 A3018 RMK A01 T02120177  RH  080%=      5-min Rain = 0
KSM2 080424Z 28019KT 21/18 A3018 RMK A01 T02120177  RH  080%=      5-min Rain = 0
KSM2 080425Z 28020KT 21/18 A3019 RMK A01 T02120175  RH  079%=      5-min Rain = 0
KSM2 080426Z 27019KT 21/17 A3019 RMK A01 T02140174  RH  078%=      5-min Rain = 0
KSM2 080427Z 28018KT 21/18 A3019 RMK A01 T02140175  RH  079%=      5-min Rain = 0
KSM2 080428Z 27018KT 21/18 A3019 RMK A01 T02130176  RH  079%=      5-min Rain = 0
KSM2 080429Z 28019KT 21/18 A3019 RMK A01 T02120177  RH  080%=      5-min Rain = 0
KSM2 080430Z 28019KT 21/18 A3019 RMK A01 T02120176  RH  080%=      5-min Rain = 0
KSM2 080431Z 27020KT 21/18 A3019 RMK A01 T02120175  RH  080%=      5-min Rain = 0
KSM2 080432Z 27020KT 21/18 A3019 RMK A01 T02120176  RH  080%=      5-min Rain = 0
KSM2 080433Z 28019KT 21/18 A3019 RMK A01 T02110177  RH  081%=      5-min Rain = 0.01
KSM2 080434Z 28020KT 21/18 A3018 RMK A01 T02080175  RH  081%=      5-min Rain = 0.01
KSM2 080435Z 28018KT 21/17 A3018 RMK A01 T02080173  RH  080%=      5-min Rain = 0
KSM2 080436Z 28018KT 21/17 A3018 RMK A01 T02090174  RH  081%=      5-min Rain = 0
KSM2 080437Z 29020KT 21/17 A3018 RMK A01 T02090171  RH  079%=      5-min Rain = 0
KSM2 080438Z 29021KT 21/17 A3018 RMK A01 T02110170  RH  077%=      5-min Rain = 0
KSM2 080439Z 29018KT 21/17 A3018 RMK A01 T02120170  RH  077%=      5-min Rain = 0.01
KSM2 080440Z 29019KT 21/17 A3018 RMK A01 T02120169  RH  076%=      5-min Rain = 0
KSM2 080441Z 29017KT 21/17 A3018 RMK A01 T02130170  RH  076%=      5-min Rain = 0
KSM2 080442Z 29018KT 21/17 A3018 RMK A01 T02130170  RH  077%=      5-min Rain = 0
KSM2 080443Z 29019KT 21/17 A3018 RMK A01 T02130170  RH  077%=      5-min Rain = 0
KSM2 080444Z 29018KT 21/17 A3018 RMK A01 T02120170  RH  077%=      5-min Rain = 0.01
KSM2 080445Z 29017KT 21/17 A3018 RMK A01 T02120172  RH  078%=      5-min Rain = 0
KSM2 080446Z 29018KT 21/17 A3018 RMK A01 T02120172  RH  078%=      5-min Rain = 0
KSM2 080447Z 29017KT 21/17 A3018 RMK A01 T02110173  RH  079%=      5-min Rain = 0
KSM2 080448Z 29015KT 21/17 A3018 RMK A01 T02100174  RH  080%=      5-min Rain = 0
KSM2 080449Z 29015KT 21/18 A3018 RMK A01 T02090175  RH  081%=      5-min Rain = 0.01
KSM2 080450Z 29015KT 21/18 A3018 RMK A01 T02080175  RH  081%=      5-min Rain = 0
KSM2 080451Z 29013KT 21/18 A3018 RMK A01 T02080175  RH  081%=      5-min Rain = 0
KSM2 080452Z 29014G19KT 21/18 A3018 RMK A01 T02080175  RH  081%=      5-min Rain = 0
KSM2 080453Z 29016KT 21/17 A3017 RMK A01 T02090171  RH  079%=      5-min Rain = 0
KSM2 080454Z 29014KT 21/17 A3017 RMK A01 T02100172  RH  079%=      5-min Rain = 0
KSM2 080455Z 29014G19KT 21/17 A3017 RMK A01 T02100172  RH  079%=      5-min Rain = 0
KSM2 080456Z 28015KT 21/17 A3017 RMK A01 T02100172  RH  079%=      5-min Rain = 0.01
KSM2 080457Z 29016KT 21/17 A3017 RMK A01 T02100170  RH  078%=      5-min Rain = 0
KSM2 080458Z 29018KT 21/17 A3017 RMK A01 T02110168  RH  077%=      5-min Rain = 0
KSM2 080459Z 29018KT 21/17 A3017 RMK A01 T02120165  RH  074%=      5-min Rain = 0

Page generated in 0.1192 seconds.